Data for 06/15/2009

Time Sea-Level Adjusted Pressure Absolute Pressure Temperature Relative Humidity Dew Point Precipitation   
(mb) (inHg) (mb) (inHg) (C) (F) (%) (C) (F) (mm) (in)
00:01 1016 30 845 24.95 9.8 49.6 92 8.5 47.3 10.13 0.399
00:02 1016 30 845 24.95 9.8 49.6 92 8.5 47.2 10.09 0.397
00:03 1016 30 845 24.95 9.8 49.6 91 8.5 47.2 10.14 0.399
00:04 1016 30 845 24.95 9.8 49.6 92 8.5 47.3 10.09 0.397
00:05 1016 30 845 24.95 9.8 49.6 92 8.5 47.3 10.04 0.395
00:06 1016 30 845 24.95 9.8 49.6 92 8.5 47.3 10.07 0.396
00:07 1016 30 845 24.95 9.7 49.5 92 8.5 47.2 10.04 0.395
00:08 1016 30 845 24.95 9.7 49.5 92 8.5 47.2 10.04 0.395
00:09 1016 30 845 24.95 9.7 49.5 92 8.4 47.2 10.04 0.395
00:10 1016 30 845 24.95 9.7 49.5 92 8.5 47.2 10.05 0.396
00:11 1016 30 845 24.95 9.7 49.5 92 8.5 47.3 10.14 0.399
00:12 1016 30 845 24.95 9.8 49.6 92 8.5 47.3 10.06 0.396
00:13 1016 30 845 24.95 9.8 49.6 91 8.4 47.2 10.04 0.395
00:14 1016 30 845 24.95 9.8 49.6 91 8.4 47.1 10.06 0.396
00:15 1016 30 845 24.95 9.8 49.6 91 8.4 47.2 10.08 0.397
00:16 1016 30 845 24.95 9.8 49.6 91 8.4 47.2 10.08 0.397
00:17 1016 30 845 24.95 9.8 49.7 91 8.4 47.1 10.08 0.397
00:18 1016 30 845 24.95 9.8 49.6 91 8.4 47.1 10.05 0.396
00:19 1016 30 845 24.95 9.8 49.6 91 8.4 47.1 10.07 0.396
00:20 1016 30 845 24.95 9.8 49.6 91 8.4 47.1 10.12 0.398
00:21 1016 30 845 24.95 9.8 49.6 91 8.3 47 10.1 0.398
00:22 1016 30 845 24.95 9.8 49.6 91 8.3 47 10.06 0.396
00:23 1016 30 845 24.95 9.8 49.6 90 8.2 46.8 9.98 0.393
00:24 1016 30 845 24.95 9.7 49.4 90 8.1 46.6 9.88 0.389
00:25 1016 30 845 24.95 9.6 49.2 91 8.1 46.6 9.8 0.386
00:26 1016 30 845 24.95 9.5 49.1 91 8.1 46.7 9.78 0.385
00:27 1016 30 845 24.95 9.5 49 91 8.1 46.6 9.79 0.385
00:28 1016 30 845 24.95 9.4 49 92 8.1 46.7 9.74 0.383
00:29 1016 30 845 24.95 9.5 49.1 91 8.2 46.7 9.77 0.385
00:30 1016 30 845 24.95 9.4 49 91 8.1 46.5 9.71 0.382
00:31 1016 30 845 24.95 9.4 48.9 92 8.2 46.7 9.72 0.383
00:32 1016 30 845 24.95 9.4 48.9 92 8.2 46.7 9.75 0.384
00:33 1016 30 845 24.95 9.4 49 92 8.2 46.7 9.77 0.385
00:34 1016 30 845 24.95 9.4 49 92 8.2 46.7 9.77 0.385
00:35 1016 30 845 24.95 9.4 49 92 8.2 46.7 9.8 0.386
00:36 1016 30 845 24.95 9.5 49 92 8.2 46.7 9.77 0.385
00:37 1016 30 845 24.95 9.3 48.8 91 7.9 46.2 9.71 0.382
00:38 1016 30 845 24.95 9.3 48.7 91 7.9 46.3 9.57 0.377
00:39 1016 30 845 24.95 9.3 48.7 92 8.1 46.5 9.52 0.375
00:40 1016 30 845 24.95 9.3 48.7 92 8.1 46.6 9.59 0.378
00:41 1016 30 845 24.95 9.3 48.7 92 8 46.3 9.53 0.375
00:42 1016 30 845 24.95 9.1 48.4 91 7.7 45.8 9.37 0.369
00:43 1016 30 845 24.95 9 48.1 91 7.5 45.6 9.22 0.363
00:44 1016 30 845 24.95 8.8 47.8 92 7.5 45.5 9.08 0.357
00:45 1016 30 845 24.95 8.7 47.6 92 7.4 45.4 9 0.354
00:46 1016 30 845 24.95 8.6 47.5 92 7.4 45.3 8.89 0.35
00:47 1016 30 845 24.95 8.5 47.3 93 7.4 45.2 8.77 0.345
00:48 1016 30 845 24.95 8.4 47.1 93 7.3 45.1 8.8 0.346
00:49 1016 30 845 24.95 8.3 47 93 7.3 45.1 8.68 0.342
00:50 1016 30 845 24.95 8.3 46.9 94 7.3 45.2 8.61 0.339
00:51 1016 30 845 24.95 8.2 46.8 94 7.3 45.1 8.59 0.338
00:52 1016 30 845 24.95 8.2 46.8 94 7.2 45 8.58 0.338
00:53 1016 30 845 24.95 8.2 46.7 94 7.2 45 8.48 0.334
00:54 1016 30 845 24.95 8.1 46.7 94 7.3 45.1 8.5 0.335
00:55 1016 30 845 24.95 8.2 46.7 94 7.3 45.2 8.49 0.334
00:56 1016 30 845 24.95 8.2 46.7 95 7.4 45.4 8.54 0.336
00:57 1016 30 845 24.95 8.3 46.9 95 7.5 45.4 8.57 0.337
00:58 1016 30 845 24.95 8.2 46.8 94 7.3 45.1 8.45 0.333
00:59 1016 30 845 24.95 8.1 46.5 93 7.1 44.8 8.36 0.329
01:00 1016 30 845 24.95 8 46.5 93 7 44.6 8.26 0.325
01:01 1016 30 845 24.95 7.9 46.3 94 7 44.6 8.22 0.324
01:02 1016 30 845 24.95 7.9 46.3 93 6.9 44.4 8.17 0.322
01:03 1016 30 845 24.95 7.8 46 93 6.7 44.1 8.08 0.318
01:04 1016 30 845 24.95 7.7 45.8 93 6.6 43.9 8.02 0.316
01:05 1016 30 845 24.95 7.6 45.6 93 6.5 43.7 7.85 0.309
01:06 1016 30 845 24.95 7.5 45.5 94 6.6 43.8 7.75 0.305
01:07 1016 30 845 24.95 7.5 45.4 94 6.6 43.9 7.82 0.308
01:08 1016 30 845 24.95 7.5 45.5 95 6.7 44.1 7.83 0.308
01:09 1016 30 845 24.95 7.5 45.6 95 6.8 44.3 7.94 0.313
01:10 1016 30 845 24.95 7.6 45.7 95 6.9 44.4 7.97 0.314
01:11 1016 30 845 24.95 7.6 45.8 95 6.9 44.4 8 0.315
01:12 1016 30 845 24.95 7.6 45.8 95 6.9 44.4 8 0.315
01:13 1016 30 845 24.95 7.6 45.7 95 6.8 44.2 7.94 0.313
01:14 1016 30 845 24.95 7.5 45.5 94 6.6 43.9 7.86 0.309
01:15 1016 30 845 24.95 7.4 45.3 94 6.5 43.7 7.76 0.306
01:16 1016 30 845 24.95 7.3 45.2 94 6.5 43.7 7.69 0.303
01:17 1016 30 845 24.95 7.3 45.1 94 6.5 43.6 7.67 0.302
01:18 1016 30 845 24.95 7.2 45 95 6.4 43.5 7.6 0.299
01:19 1016 30 845 24.95 7.2 44.9 95 6.3 43.4 7.53 0.296
01:20 1016 30 845 24.95 7.1 44.8 94 6.3 43.3 7.47 0.294
01:21 1016 30 845 24.95 7 44.7 95 6.3 43.3 7.4 0.291
01:22 1016 30 845 24.95 7 44.7 95 6.3 43.3 7.38 0.291
01:23 1016 30 845 24.95 7.1 44.7 96 6.4 43.5 7.4 0.291
01:24 1016 30 845 24.95 7.1 44.8 96 6.4 43.6 7.48 0.294
01:25 1016 30 845 24.95 7.1 44.8 96 6.4 43.6 7.43 0.293
01:26 1016 30 845 24.95 7.2 44.9 96 6.6 43.8 7.52 0.296
01:27 1016 30 845 24.95 7.2 45 96 6.6 43.9 7.54 0.297
01:28 1016 30 845 24.95 7.3 45.1 96 6.7 44 7.63 0.3
01:29 1016 30 845 24.95 7.3 45.2 96 6.7 44.1 7.67 0.302
01:30 1016 30 845 24.95 7.4 45.2 96 6.8 44.2 7.77 0.306
01:31 1016 30 845 24.95 7.4 45.4 96 6.8 44.3 7.76 0.306
01:32 1016 30 845 24.95 7.5 45.5 96 6.9 44.4 7.81 0.307
01:33 1016 30 845 24.95 7.6 45.6 96 7 44.6 7.91 0.311
01:34 1016 30 845 24.95 7.7 45.8 96 7.1 44.8 8.01 0.315
01:35 1016 30 845 24.95 7.8 46.1 96 7.3 45.1 8.11 0.319
01:36 1016 30 845 24.95 7.9 46.3 96 7.4 45.3 8.2 0.323
01:37 1016 30 845 24.95 8.1 46.5 96 7.5 45.6 8.36 0.329
01:38 1016 30 845 24.95 8.2 46.8 96 7.6 45.7 8.49 0.334
01:39 1016 30 845 24.95 8.3 47 96 7.7 45.9 8.59 0.338
01:40 1016 30 845 24.95 8.5 47.2 96 7.8 46.1 8.74 0.344
01:41 1016 30 845 24.95 8.6 47.4 95 7.9 46.2 8.8 0.346
01:42 1016 30 845 24.95 8.7 47.6 95 7.9 46.2 8.92 0.351
01:43 1016 30 845 24.95 8.8 47.8 95 8 46.3 8.97 0.353
01:44 1016 30 845 24.95 8.9 47.9 94 8 46.3 9.07 0.357
01:45 1016 30 845 24.95 8.9 48 94 7.9 46.3 9.08 0.357
01:46 1016 30 845 24.95 8.9 48 93 7.9 46.2 9.1 0.358
01:47 1016 30 845 24.95 9 48.1 93 8 46.3 9.13 0.359
01:48 1016 30 845 24.95 9 48.1 93 7.9 46.2 9.16 0.361
01:49 1016 30 845 24.95 8.9 48 93 7.8 46.1 9.15 0.36
01:50 1016 30 845 24.95 8.9 48 93 7.9 46.2 9.16 0.361
01:51 1016 30 845 24.95 8.9 48 93 7.9 46.2 9.17 0.361
01:52 1016 30 845 24.95 8.9 48.1 93 7.9 46.2 9.2 0.362
01:53 1016 30 845 24.95 8.9 48.1 93 7.9 46.2 9.17 0.361
01:54 1016 30 845 24.95 8.9 48.1 93 7.9 46.1 9.23 0.363
01:55 1016 30 845 24.95 9 48.1 93 7.9 46.1 9.22 0.363
01:56 1016 30 845 24.95 9 48.2 93 7.9 46.2 9.26 0.365
01:57 1016 30 845 24.95 9 48.2 93 7.9 46.2 9.23 0.363
01:58 1016 30 845 24.95 9.1 48.3 93 7.9 46.3 9.27 0.365
01:59 1016 30 845 24.95 9 48.2 93 7.9 46.2 9.29 0.366
02:00 1016 30 845 24.95 9 48.3 93 7.9 46.2 9.29 0.366
02:01 1016 30 845 24.95 9 48.3 92 7.9 46.2 9.31 0.367
02:02 1016 30 845 24.95 9.1 48.3 92 7.9 46.2 9.32 0.367
02:03 1016 30 845 24.95 9 48.3 92 7.9 46.2 9.33 0.367
02:04 1016 30 845 24.95 9.1 48.3 92 7.9 46.2 9.32 0.367
02:05 1016 30 845 24.95 9 48.3 92 7.9 46.2 9.34 0.368
02:06 1016 30 845 24.95 9 48.3 93 7.9 46.2 9.35 0.368
02:07 1016 30 845 24.95 9 48.3 93 7.9 46.3 9.32 0.367
02:08 1016 30 845 24.95 9 48.2 93 7.9 46.2 9.32 0.367
02:09 1016 30 845 24.95 9 48.2 93 7.9 46.3 9.33 0.367
02:10 1016 30 845 24.95 9 48.2 93 8 46.3 9.34 0.368
02:11 1016 30 845 24.95 9 48.2 93 8 46.4 9.3 0.366
02:12 1016 30 845 24.95 9 48.3 93 8 46.4 9.36 0.369
02:13 1016 30 845 24.95 9.1 48.3 93 8 46.4 9.33 0.367
02:14 1016 30 845 24.95 9.1 48.3 93 8 46.4 9.35 0.368
02:15 1016 30 845 24.95 9 48.3 93 8 46.3 9.37 0.369
02:16 1016 30 845 24.95 9.1 48.3 93 8 46.4 9.34 0.368
02:17 1016 30 845 24.95 9.1 48.3 93 8 46.5 9.34 0.368
02:18 1016 30 845 24.95 9.1 48.3 93 8 46.5 9.36 0.369
02:19 1016 30 845 24.95 9 48.3 93 8 46.4 9.35 0.368
02:20 1016 30 845 24.95 9.1 48.3 93 8 46.5 9.35 0.368
02:21 1016 30 845 24.95 9.1 48.3 93 8 46.4 9.36 0.369
02:22 1016 30 845 24.95 9.1 48.3 93 8.1 46.5 9.39 0.37
02:23 1016 30 845 24.95 9.1 48.4 93 8.1 46.6 9.39 0.37
02:24 1016 30 845 24.95 9.1 48.3 93 8.1 46.5 9.38 0.369
02:25 1016 30 845 24.95 9.1 48.4 93 8.1 46.6 9.46 0.372
02:26 1016 30 845 24.95 9.1 48.4 93 8.1 46.6 9.43 0.371
02:27 1016 30 845 24.95 9.1 48.4 94 8.1 46.6 9.42 0.371
02:28 1016 30 845 24.95 9.1 48.4 94 8.1 46.6 9.4 0.37
02:29 1016 30 845 24.95 9.1 48.4 93 8.1 46.6 9.47 0.373
02:30 1016 30 845 24.95 9.2 48.5 93 8.1 46.7 9.51 0.374
02:31 1016 30 845 24.95 9.2 48.5 93 8.2 46.7 9.51 0.374
02:32 1016 30 845 24.95 9.2 48.5 93 8.1 46.6 9.52 0.375
02:33 1016 30 845 24.95 9.2 48.6 93 8.2 46.7 9.55 0.376
02:34 1016 30 845 24.95 9.2 48.6 93 8.1 46.7 9.5 0.374
02:35 1016 30 845 24.95 9.2 48.6 93 8.1 46.7 9.56 0.376
02:36 1016 30 845 24.95 9.2 48.6 93 8.1 46.6 9.51 0.374
02:37 1016 30 845 24.95 9.3 48.7 93 8.2 46.7 9.53 0.375
02:38 1016 30 845 24.95 9.2 48.6 93 8.1 46.7 9.54 0.376
02:39 1016 30 845 24.95 9.2 48.6 93 8.1 46.7 9.52 0.375
02:40 1016 30 845 24.95 9.2 48.5 93 8.1 46.6 9.46 0.372
02:41 1016 30 845 24.95 9.2 48.6 93 8.2 46.7 9.53 0.375
02:42 1016 30 845 24.95 9.2 48.6 93 8.2 46.7 9.5 0.374
02:43 1016 30 845 24.95 9.2 48.6 93 8.2 46.7 9.55 0.376
02:44 1016 30 845 24.95 9.2 48.6 93 8.2 46.7 9.53 0.375
02:45 1016 30 845 24.95 9.2 48.6 93 8.1 46.6 9.53 0.375
02:46 1016 30 845 24.95 9.2 48.6 93 8.1 46.6 9.55 0.376
02:47 1016 30 845 24.95 9.3 48.7 93 8.1 46.6 9.51 0.374
02:48 1016 30 845 24.95 9.2 48.6 93 8.1 46.6 9.56 0.376
02:49 1016 30 845 24.95 9.2 48.6 93 8.1 46.5 9.51 0.374
02:50 1016 30 845 24.95 9.2 48.6 92 8.1 46.5 9.55 0.376
02:51 1016 30 845 24.95 9.2 48.6 92 8.1 46.5 9.51 0.374
02:52 1016 30 845 24.95 9.2 48.6 92 8 46.5 9.49 0.374
02:53 1016 30 845 24.95 9.2 48.5 92 8 46.4 9.48 0.373
02:54 1016 30 845 24.95 9.2 48.5 92 8 46.3 9.5 0.374
02:55 1016 30 845 24.95 9.2 48.6 92 8 46.4 9.49 0.374
02:56 1016 30 845 24.95 9.2 48.6 92 8 46.4 9.49 0.374
02:57 1016 30 845 24.95 9.2 48.5 92 7.9 46.3 9.49 0.374
02:58 1016 30 845 24.95 9.2 48.5 92 8 46.4 9.43 0.371
02:59 1016 30 845 24.95 9.1 48.4 92 8 46.3 9.42 0.371
03:00 1016 30 845 24.95 9.1 48.4 92 7.9 46.2 9.43 0.371
03:01 1016 30 845 24.95 9.1 48.4 92 7.9 46.3 9.39 0.37
03:02 1016 30 845 24.95 9.1 48.4 92 7.9 46.3 9.41 0.37
03:03 1016 30 845 24.95 9.1 48.3 92 7.9 46.2 9.37 0.369
03:04 1016 30 845 24.95 9.1 48.3 92 7.9 46.3 9.41 0.37
03:05 1016 30 845 24.95 9.1 48.3 93 7.9 46.3 9.41 0.37
03:06 1016 30 845 24.95 9.1 48.3 93 7.9 46.3 9.38 0.369
03:07 1016 30 845 24.95 9 48.3 93 7.9 46.3 9.34 0.368
03:08 1016 30 845 24.95 9 48.2 93 7.9 46.3 9.32 0.367
03:09 1016 30 845 24.95 9 48.1 93 7.9 46.2 9.33 0.367
03:10 1016 30 845 24.95 9 48.2 93 7.9 46.3 9.34 0.368
03:11 1016 30 845 24.95 9 48.1 93 7.9 46.3 9.3 0.366
03:12 1016 30 845 24.95 9 48.1 93 7.9 46.3 9.31 0.367
03:13 1016 30 845 24.95 8.9 48.1 93 7.9 46.2 9.28 0.365
03:14 1016 30 845 24.95 8.9 48.1 93 7.8 46.1 9.26 0.365
03:15 1016 30 845 24.95 8.9 48.1 93 7.8 46.1 9.27 0.365
03:16 1016 30 845 24.95 9 48.2 92 7.8 46.1 9.3 0.366
03:17 1016 30 845 24.95 9 48.3 92 7.8 46.1 9.34 0.368
03:18 1016 30 845 24.95 9 48.2 92 7.8 46.1 9.32 0.367
03:19 1016 30 845 24.95 9 48.2 92 7.8 46 9.32 0.367
03:20 1016 30 845 24.95 9 48.2 92 7.8 46 9.3 0.366
03:21 1016 30 845 24.95 9 48.3 92 7.8 46.1 9.32 0.367
03:22 1016 30 845 24.95 9 48.3 92 7.8 46 9.24 0.364
03:23 1016 30 845 24.95 9 48.2 92 7.7 45.9 9.29 0.366
03:24 1016 30 845 24.95 9 48.2 92 7.8 46 9.29 0.366
03:25 1016 30 845 24.95 9 48.2 92 7.8 46 9.29 0.366
03:26 1016 30 845 24.95 9 48.3 92 7.8 46 9.27 0.365
03:27 1016 30 845 24.95 9 48.2 92 7.7 45.9 9.26 0.365
03:28 1016 30 845 24.95 9 48.2 92 7.8 46 9.28 0.365
03:29 1016 30 845 24.95 9 48.2 92 7.8 46 9.28 0.365
03:30 1016 30 845 24.95 9 48.2 92 7.8 46.1 9.31 0.367
03:31 1016 30 845 24.95 8.9 48.1 92 7.8 46 9.25 0.364
03:32 1016 30 845 24.95 8.9 48 93 7.8 46 9.26 0.365
03:33 1016 30 845 24.95 8.9 48 93 7.8 46 9.21 0.363
03:34 1016 30 845 24.95 8.9 47.9 93 7.7 45.9 9.19 0.362
03:35 1016 30 845 24.95 8.9 48 93 7.8 46.1 9.2 0.362
03:36 1016 30 845 24.95 9 48.1 93 7.9 46.2 9.24 0.364
03:37 1016 30 845 24.95 9 48.2 93 7.9 46.2 9.33 0.367
03:38 1016 30 845 24.95 9 48.3 93 8 46.3 9.33 0.367
03:39 1016 30 845 24.95 9 48.3 93 7.9 46.3 9.32 0.367
03:40 1016 30 845 24.95 9 48.3 93 7.9 46.2 9.37 0.369
03:41 1016 30 845 24.95 9 48.3 92 7.9 46.1 9.34 0.368
03:42 1016 30 845 24.95 9.1 48.3 92 7.9 46.2 9.29 0.366
03:43 1016 30 845 24.95 9.1 48.3 92 7.8 46.1 9.36 0.369
03:44 1016 30 845 24.95 9.1 48.4 92 7.9 46.1 9.34 0.368
03:45 1016 30 845 24.95 9.1 48.3 92 7.8 46.1 9.35 0.368
03:46 1016 30 845 24.95 9.1 48.3 92 7.8 46.1 9.36 0.369
03:47 1016 30 845 24.95 9.1 48.3 92 7.8 46.1 9.37 0.369
03:48 1016 30 845 24.95 9.1 48.3 92 7.8 46.1 9.36 0.369
03:49 1016 30 845 24.95 9 48.3 92 7.9 46.2 9.32 0.367
03:50 1016 30 845 24.95 9.1 48.3 92 7.9 46.2 9.33 0.367
03:51 1016 30 845 24.95 9 48.3 93 7.9 46.2 9.36 0.369
03:52 1016 30 845 24.95 9 48.3 93 7.9 46.2 9.34 0.368
03:53 1016 30 845 24.95 9.1 48.3 93 8 46.3 9.4 0.37
03:54 1016 30 845 24.95 9.1 48.3 93 7.9 46.3 9.41 0.37
03:55 1016 30 845 24.95 9.1 48.4 92 7.9 46.2 9.44 0.372
03:56 1016 30 845 24.95 9.1 48.4 92 7.9 46.2 9.44 0.372
03:57 1016 30 845 24.95 9.1 48.5 92 7.9 46.1 9.43 0.371
03:58 1016 30 845 24.95 9.2 48.5 92 7.9 46.2 9.47 0.373
03:59 1016 30 845 24.95 9.2 48.5 92 7.9 46.2 9.47 0.373
04:00 1016 30 845 24.95 9.2 48.5 92 7.9 46.1 9.46 0.372
04:01 1016 30 845 24.95 9.2 48.5 92 7.9 46.2 9.44 0.372
04:02 1016 30 845 24.95 9.1 48.4 92 7.8 46.1 9.41 0.37
04:03 1016 30 845 24.95 9.1 48.4 92 7.8 46.1 9.41 0.37
04:04 1016 30 845 24.95 9.1 48.4 92 7.8 46.1 9.4 0.37
04:05 1016 30 845 24.95 9.1 48.4 92 7.8 46.1 9.38 0.369
04:06 1016 30 845 24.95 9.1 48.4 92 7.8 46 9.41 0.37
04:07 1016 30 845 24.95 9.1 48.4 91 7.8 46 9.4 0.37
04:08 1016 30 845 24.95 9.1 48.4 91 7.8 46 9.44 0.372
04:09 1016 30 845 24.95 9.1 48.5 91 7.8 46 9.46 0.372
04:10 1016 30 845 24.95 9.2 48.5 91 7.8 46 9.43 0.371
04:11 1016 30 845 24.95 9.2 48.5 91 7.8 46 9.46 0.372
04:12 1016 30 845 24.95 9.2 48.5 91 7.8 46.1 9.42 0.371
04:13 1016 30 845 24.95 9.2 48.5 91 7.8 46.1 9.46 0.372
04:14 1016 30 845 24.95 9.2 48.6 91 7.9 46.2 9.48 0.373
04:15 1016 30 845 24.95 9.2 48.5 92 7.9 46.2 9.47 0.373
04:16 1016 30 845 24.95 9.2 48.6 92 8 46.3 9.47 0.373
04:17 1016 30 845 24.95 9.2 48.6 92 8 46.3 9.49 0.374
04:18 1016 30 845 24.95 9.2 48.5 92 8 46.4 9.54 0.376
04:19 1016 30 845 24.95 9.2 48.5 92 8 46.4 9.52 0.375
04:20 1016 30 845 24.95 9.2 48.5 93 8 46.4 9.53 0.375
04:21 1016 30 845 24.95 9.2 48.5 93 8 46.5 9.47 0.373
04:22 1016 30 845 24.95 9.2 48.5 93 8 46.4 9.47 0.373
04:23 1016 30 845 24.95 9.2 48.5 92 8 46.4 9.48 0.373
04:24 1016 30 845 24.95 9.2 48.5 92 8 46.3 9.47 0.373
04:25 1016 30 845 24.95 9.2 48.5 92 8 46.3 9.45 0.372
04:26 1016 30 845 24.95 9.2 48.5 92 7.9 46.3 9.49 0.374
04:27 1016 30 845 24.95 9.2 48.5 92 7.9 46.2 9.48 0.373
04:28 1016 30 845 24.95 9.2 48.5 91 7.9 46.2 9.47 0.373
04:29 1016 30 845 24.95 9.2 48.6 91 7.9 46.1 9.47 0.373
04:30 1016 30 845 24.95 9.2 48.6 91 7.8 46.1 9.5 0.374
04:31 1016 30 845 24.95 9.3 48.7 91 7.8 46.1 9.48 0.373
04:32 1016 30 845 24.95 9.3 48.7 91 7.8 46 9.51 0.374
04:33 1016 30 845 24.95 9.3 48.7 91 7.8 46.1 9.5 0.374
04:34 1016 30 845 24.95 9.3 48.7 91 7.9 46.1 9.49 0.374
04:35 1016 30 845 24.95 9.3 48.7 91 7.8 46.1 9.51 0.374
04:36 1016 30 845 24.95 9.2 48.6 91 7.8 46 9.5 0.374
04:37 1016 30 845 24.95 9.3 48.7 91 7.8 46.1 9.51 0.374
04:38 1016 30 845 24.95 9.3 48.7 91 7.8 46.1 9.5 0.374
04:39 1016 30 845 24.95 9.3 48.7 91 7.9 46.2 9.47 0.373
04:40 1016 30 845 24.95 9.3 48.7 91 7.8 46.1 9.49 0.374
04:41 1016 30 845 24.95 9.3 48.7 91 7.9 46.1 9.5 0.374
04:42 1016 30 845 24.95 9.3 48.7 91 7.9 46.1 9.52 0.375
04:43 1016 30 845 24.95 9.3 48.7 91 7.8 46.1 9.53 0.375
04:44 1016 30 845 24.95 9.3 48.7 91 7.9 46.2 9.51 0.374
04:45 1016 30 845 24.95 9.2 48.6 91 7.8 46.1 9.47 0.373
04:46 1016 30 845 24.95 9.2 48.6 91 7.8 46.1 9.54 0.376
04:47 1016 30 845 24.95 9.2 48.6 91 7.9 46.2 9.51 0.374
04:48 1016 30 845 24.95 9.2 48.6 91 7.9 46.2 9.49 0.374
04:49 1016 30 845 24.95 9.2 48.6 91 7.9 46.2 9.55 0.376
04:50 1016 30 845 24.95 9.2 48.6 91 7.9 46.2 9.51 0.374
04:51 1016 30 845 24.95 9.2 48.6 91 7.9 46.2 9.53 0.375
04:52 1016 30 845 24.95 9.2 48.6 91 7.9 46.1 9.5 0.374
04:53 1016 30 845 24.95 9.2 48.6 91 7.9 46.1 9.51 0.374
04:54 1016 30 845 24.95 9.2 48.6 91 7.9 46.2 9.53 0.375
04:55 1016 30 845 24.95 9.2 48.6 91 7.9 46.2 9.52 0.375
04:56 1016 30 845 24.95 9.2 48.6 91 7.9 46.2 9.51 0.374
04:57 1016 30 845 24.95 9.2 48.5 92 7.9 46.2 9.5 0.374
04:58 1016 30 845 24.95 9.2 48.5 92 7.9 46.3 9.5 0.374
04:59 1016 30 845 24.95 9.1 48.4 92 7.9 46.3 9.46 0.372
05:00 1016 30 845 24.95 9.1 48.4 93 8 46.4 9.49 0.374
05:01 1016 30 845 24.95 9.1 48.4 93 8.1 46.5 9.5 0.374
05:02 1016 30 845 24.95 9.1 48.4 93 8.1 46.5 9.46 0.372
05:03 1016 30 845 24.95 9.1 48.4 93 8.1 46.6 9.46 0.372
05:04 1016 30 845 24.95 9.2 48.5 93 8.1 46.6 9.52 0.375
05:05 1016 30 845 24.95 9.1 48.5 93 8.1 46.6 9.53 0.375
05:06 1016 30 845 24.95 9.2 48.5 93 8.1 46.6 9.55 0.376
05:07 1016 30 845 24.95 9.2 48.6 93 8.1 46.6 9.58 0.377
05:08 1016 30 845 24.95 9.3 48.7 93 8.2 46.7 9.6 0.378
05:09 1016 30 845 24.95 9.3 48.7 93 8.2 46.7 9.64 0.38
05:10 1016 30 845 24.95 9.3 48.8 93 8.2 46.7 9.66 0.38
05:11 1016 30 845 24.95 9.3 48.8 93 8.2 46.8 9.66 0.38
05:12 1016 30 845 24.95 9.3 48.8 93 8.2 46.8 9.71 0.382
05:13 1016 30 845 24.95 9.4 48.8 93 8.2 46.8 9.66 0.38
05:14 1016 30 845 24.95 9.4 48.8 93 8.2 46.8 9.71 0.382
05:15 1016 30 845 24.95 9.3 48.8 92 8.2 46.7 9.66 0.38
05:16 1016 30 845 24.95 9.3 48.8 92 8.2 46.7 9.69 0.381
05:17 1016 30 845 24.95 9.4 48.9 92 8.2 46.7 9.71 0.382
05:18 1016 30 845 24.95 9.4 49 92 8.2 46.8 9.72 0.383
05:19 1016 30 845 24.95 9.4 49 92 8.2 46.8 9.73 0.383
05:20 1016 30 845 24.95 9.5 49 92 8.2 46.8 9.77 0.385
05:21 1016 30 845 24.95 9.4 49 92 8.2 46.8 9.75 0.384
05:22 1016 30 845 24.95 9.5 49 92 8.3 46.9 9.77 0.385
05:23 1016 30 845 24.95 9.4 49 92 8.2 46.8 9.78 0.385
05:24 1016 30 845 24.95 9.5 49 92 8.3 46.9 9.76 0.384
05:25 1016 30 845 24.95 9.5 49 92 8.3 46.9 9.75 0.384
05:26 1016 30 845 24.95 9.5 49 93 8.3 46.9 9.77 0.385
05:27 1016 30 845 24.95 9.4 49 92 8.3 46.9 9.79 0.385
05:28 1016 30 845 24.95 9.5 49 92 8.3 46.9 9.76 0.384
05:29 1016 30 845 24.95 9.5 49.1 92 8.3 47 9.8 0.386
05:30 1016 30 845 24.95 9.5 49.1 93 8.4 47 9.8 0.386
05:31 1016 30 845 24.95 9.5 49.1 93 8.4 47.1 9.8 0.386
05:32 1016 30 845 24.95 9.5 49.1 93 8.4 47 9.77 0.385
05:33 1016 30 845 24.95 9.5 49 93 8.3 47 9.75 0.384
05:34 1016 30 845 24.95 9.4 49 93 8.3 46.9 9.79 0.385
05:35 1016 30 845 24.95 9.5 49 93 8.4 47 9.79 0.385
05:36 1016 30 845 24.95 9.5 49 93 8.4 47 9.8 0.386
05:37 1016 30 845 24.95 9.5 49 93 8.4 47 9.82 0.387
05:38 1016 30 845 24.95 9.5 49 93 8.4 47.1 9.82 0.387
05:39 1016 30 845 24.95 9.5 49.1 93 8.4 47.1 9.81 0.386
05:40 1016 30 845 24.95 9.5 49 93 8.3 47 9.82 0.387
05:41 1016 30 845 24.95 9.5 49.1 93 8.4 47.1 9.79 0.385
05:42 1016 30 845 24.95 9.5 49.1 93 8.4 47.1 9.79 0.385
05:43 1016 30 845 24.95 9.5 49.1 93 8.3 47 9.84 0.387
05:44 1016 30 845 24.95 9.5 49.2 92 8.4 47.1 9.85 0.388
05:45 1016 30 845 24.95 9.5 49.2 92 8.4 47 9.85 0.388
05:46 1016 30 845 24.95 9.5 49.2 92 8.4 47.1 9.83 0.387
05:47 1016 30 845 24.95 9.5 49.2 92 8.4 47 9.88 0.389
05:48 1016 30 845 24.95 9.5 49.2 92 8.3 47 9.82 0.387
05:49 1016 30 845 24.95 9.5 49.1 92 8.3 46.9 9.82 0.387
05:50 1016 30 845 24.95 9.5 49.1 92 8.2 46.8 9.84 0.387
05:51 1016 30 845 24.95 9.5 49.2 92 8.2 46.8 9.8 0.386
05:52 1016 30 845 24.95 9.5 49.1 92 8.2 46.8 9.84 0.387
05:53 1016 30 845 24.95 9.5 49.2 92 8.3 46.9 9.82 0.387
05:54 1016 30 845 24.95 9.5 49.1 92 8.2 46.8 9.8 0.386
05:55 1016 30 845 24.95 9.5 49.1 92 8.2 46.7 9.82 0.387
05:56 1016 30 845 24.95 9.5 49.1 91 8.2 46.7 9.79 0.385
05:57 1016 30 845 24.95 9.5 49.2 91 8.2 46.7 9.79 0.385
05:58 1016 30 845 24.95 9.6 49.2 91 8.1 46.6 9.84 0.387
05:59 1016 30 845 24.95 9.6 49.2 91 8.1 46.6 9.9 0.39
06:00 1016 30 845 24.95 9.7 49.4 90 8.1 46.7 9.86 0.388
06:01 1016 30 845 24.95 9.7 49.4 90 8.1 46.6 9.93 0.391
06:02 1016 30 845 24.95 9.7 49.4 90 8.1 46.6 9.95 0.392
06:03 1016 30 845 24.95 9.7 49.5 90 8.1 46.6 9.97 0.393
06:04 1016 30 845 24.95 9.7 49.5 90 8.2 46.7 9.97 0.393
06:05 1016 30 845 24.95 9.7 49.5 90 8.1 46.6 9.93 0.391
06:06 1016 30 845 24.95 9.7 49.5 90 8.1 46.7 9.98 0.393
06:07 1016 30 845 24.95 9.7 49.4 90 8.1 46.7 10.01 0.394
06:08 1016 30 845 24.95 9.7 49.4 90 8.2 46.7 9.99 0.393
06:09 1016 30 845 24.95 9.7 49.4 90 8.2 46.8 9.99 0.393
06:10 1016 30 845 24.95 9.7 49.4 91 8.2 46.8 9.96 0.392
06:11 1016 30 845 24.95 9.6 49.4 91 8.2 46.8 9.95 0.392
06:12 1016 30 845 24.95 9.6 49.4 91 8.2 46.8 9.94 0.391
06:13 1016 30 845 24.95 9.6 49.3 91 8.2 46.8 9.93 0.391
06:14 1016 30 845 24.95 9.6 49.3 91 8.2 46.8 9.96 0.392
06:15 1016 30 845 24.95 9.6 49.3 91 8.3 46.9 9.93 0.391
06:16 1016 30 845 24.95 9.6 49.3 92 8.3 47 9.91 0.39
06:17 1016 30 845 24.95 9.6 49.3 92 8.3 47 9.94 0.391
06:18 1016 30 845 24.95 9.6 49.3 92 8.4 47.1 9.94 0.391
06:19 1016 30 845 24.95 9.6 49.3 92 8.4 47.1 9.93 0.391
06:20 1016 30 845 24.95 9.6 49.2 92 8.4 47.1 9.93 0.391
06:21 1016 30 845 24.95 9.6 49.2 92 8.4 47.2 9.94 0.391
06:22 1016 30 845 24.95 9.6 49.3 93 8.5 47.3 9.97 0.393
06:23 1016 30 845 24.95 9.6 49.3 93 8.5 47.2 9.94 0.391
06:24 1016 30 845 24.95 9.6 49.2 93 8.5 47.3 9.92 0.391
06:25 1016 30 845 24.95 9.6 49.2 93 8.4 47.2 9.94 0.391
06:26 1016 30 845 24.95 9.6 49.3 93 8.5 47.3 9.99 0.393
06:27 1016 30 845 24.95 9.6 49.3 93 8.5 47.4 9.96 0.392
06:28 1016 30 845 24.95 9.7 49.4 93 8.6 47.5 9.99 0.393
06:29 1016 30 845 24.95 9.7 49.4 93 8.6 47.5 10.03 0.395
06:30 1016 30 845 24.95 9.7 49.4 93 8.6 47.5 10.04 0.395
06:31 1016 30 845 24.95 9.7 49.5 93 8.7 47.6 10.09 0.397
06:32 1016 30 845 24.95 9.7 49.5 94 8.7 47.7 10.06 0.396
06:33 1016 30 845 24.95 9.7 49.5 94 8.7 47.7 10.08 0.397
06:34 1016 30 845 24.95 9.7 49.4 94 8.7 47.7 10.07 0.396
06:35 1016 30 845 24.95 9.7 49.4 94 8.7 47.7 10.05 0.396
06:36 1016 30 845 24.95 9.7 49.4 94 8.7 47.7 10.07 0.396
06:37 1016 30 845 24.95 9.7 49.4 94 8.7 47.7 10.04 0.395
06:38 1016 30 845 24.95 9.7 49.4 94 8.7 47.7 10.05 0.396
06:39 1016 30 845 24.95 9.7 49.4 94 8.8 47.8 10.03 0.395
06:40 1016 30 845 24.95 9.7 49.4 94 8.7 47.7 10.03 0.395
06:41 1016 30 845 24.95 9.7 49.4 94 8.8 47.8 10.05 0.396
06:42 1016 30 845 24.95 9.7 49.4 94 8.8 47.8 10.07 0.396
06:43 1016 30 845 24.95 9.7 49.4 94 8.8 47.8 10.04 0.395
06:44 1016 30 845 24.95 9.7 49.4 94 8.8 47.8 10.07 0.396
06:45 1016 30 845 24.95 9.7 49.4 94 8.8 47.9 10.08 0.397
06:46 1016 30 845 24.95 9.7 49.5 94 8.9 48 10.09 0.397
06:47 1016 30 845 24.95 9.7 49.5 94 8.9 47.9 10.1 0.398
06:48 1016 30 845 24.95 9.7 49.5 94 8.9 48 10.16 0.4
06:49 1016 30 845 24.95 9.7 49.5 94 8.9 47.9 10.16 0.4
06:50 1016 30 846 24.98 9.8 49.6 94 8.9 48.1 10.16 0.4
06:51 1016 30 846 24.98 9.8 49.6 94 9 48.1 10.16 0.4
06:52 1016 30 846 24.98 9.8 49.7 94 8.9 48 10.2 0.402
06:53 1016 30 846 24.98 9.8 49.7 94 8.9 48 10.17 0.4
06:54 1016 30 846 24.98 9.8 49.7 94 8.9 48 10.21 0.402
06:55 1016 30 846 24.98 9.9 49.8 94 8.9 48.1 10.22 0.402
06:56 1016 30 846 24.98 9.9 49.8 94 9 48.1 10.28 0.405
06:57 1016 30 846 24.98 9.9 49.9 94 9 48.2 10.29 0.405
06:58 1016 30 846 24.98 10 50 94 9.1 48.3 10.31 0.406
06:59 1016 30 846 24.98 10 49.9 94 9 48.2 10.31 0.406
07:00 1016 30 846 24.98 10 49.9 94 9 48.1 10.31 0.406
07:01 1016 30 846 24.98 10 49.9 93 8.9 48.1 10.28 0.405
07:02 1016 30 846 24.98 9.9 49.9 93 8.9 48 10.25 0.404
07:03 1016 30 846 24.98 9.9 49.9 93 8.9 48 10.28 0.405
07:04 1016 30 846 24.98 9.9 49.9 93 8.9 48 10.24 0.403
07:05 1016 30 846 24.98 9.9 49.8 93 8.8 47.9 10.24 0.403
07:06 1016 30 846 24.98 9.9 49.9 94 8.9 48.1 10.24 0.403
07:07 1016 30 846 24.98 9.9 49.8 93 8.9 48 10.28 0.405
07:08 1016 30 846 24.98 9.9 49.8 94 8.9 48 10.25 0.404
07:09 1016 30 846 24.98 9.9 49.8 94 8.9 48.1 10.21 0.402
07:10 1016 30 846 24.98 9.9 49.8 94 9 48.2 10.23 0.403
07:11 1016 30 846 24.98 9.9 49.8 94 9 48.2 10.28 0.405
07:12 1016 30 846 24.98 9.9 49.7 94 9 48.2 10.25 0.404
07:13 1016 30 846 24.98 9.9 49.7 94 9 48.1 10.23 0.403
07:14 1016 30 846 24.98 9.8 49.7 94 9 48.1 10.19 0.401
07:15 1016 30 846 24.98 9.8 49.7 94 9 48.1 10.21 0.402
07:16 1016 30 846 24.98 9.8 49.6 95 9 48.2 10.2 0.402
07:17 1016 30 846 24.98 9.9 49.7 95 9 48.3 10.2 0.402
07:18 1016 30 846 24.98 9.8 49.7 95 9 48.2 10.18 0.401
07:19 1016 30 846 24.98 9.8 49.6 95 9 48.2 10.2 0.402
07:20 1016 30 846 24.98 9.8 49.6 95 9 48.2 10.19 0.401
07:21 1016 30 846 24.98 9.8 49.7 95 9 48.2 10.2 0.402
07:22 1016 30 846 24.98 9.8 49.6 95 9 48.2 10.19 0.401
07:23 1016 30 846 24.98 9.8 49.6 95 9 48.2 10.21 0.402
07:24 1016 30 846 24.98 9.8 49.7 95 9 48.2 10.18 0.401
07:25 1016 30 846 24.98 9.9 49.7 95 9 48.3 10.18 0.401
07:26 1016 30 846 24.98 9.8 49.7 95 9 48.3 10.16 0.4
07:27 1016 30 846 24.98 9.8 49.7 95 9 48.2 10.2 0.402
07:28 1016 30 846 24.98 9.8 49.7 95 9 48.2 10.21 0.402
07:29 1016 30 846 24.98 9.8 49.6 94 8.9 48.1 10.15 0.4
07:30 1016 30 846 24.98 9.8 49.6 94 8.9 48.1 10.18 0.401
07:31 1016 30 846 24.98 9.8 49.6 94 8.9 48 10.12 0.398
07:32 1016 30 846 24.98 9.8 49.6 94 8.9 48.1 10.1 0.398
07:33 1016 30 846 24.98 9.8 49.6 95 8.9 48.1 10.15 0.4
07:34 1016 30 846 24.98 9.8 49.6 95 9 48.1 10.11 0.398
07:35 1016 30 846 24.98 9.8 49.6 95 8.9 48.1 10.14 0.399
07:36 1016 30 846 24.98 9.8 49.6 95 9 48.1 10.15 0.4
07:37 1016 30 846 24.98 9.8 49.6 95 9 48.1 10.17 0.4
07:38 1016 30 846 24.98 9.8 49.6 95 9 48.2 10.16 0.4
07:39 1016 30 846 24.98 9.8 49.7 95 9 48.2 10.14 0.399
07:40 1016 30 846 24.98 9.8 49.7 95 9 48.2 10.16 0.4
07:41 1016 30 846 24.98 9.8 49.6 95 9 48.2 10.16 0.4
07:42 1016 30 846 24.98 9.8 49.7 95 9 48.2 10.16 0.4
07:43 1016 30 846 24.98 9.8 49.7 95 9 48.2 10.2 0.402
07:44 1016 30 846 24.98 9.9 49.7 95 9 48.2 10.15 0.4
07:45 1016 30 846 24.98 9.8 49.7 94 9 48.1 10.19 0.401
07:46 1016 30 846 24.98 9.8 49.6 94 8.9 48 10.16 0.4
07:47 1016 30 846 24.98 9.8 49.6 94 8.9 48 10.11 0.398
07:48 1017 30.03 846 24.98 9.8 49.7 94 8.9 48 10.12 0.398
07:49 1016 30 846 24.98 9.8 49.6 94 8.9 48 10.11 0.398
07:50 1016 30 846 24.98 9.8 49.6 94 8.9 48.1 10.11 0.398
07:51 1016 30 846 24.98 9.8 49.6 94 8.9 48 10.13 0.399
07:52 1016 30 846 24.98 9.8 49.6 94 8.9 48 10.13 0.399
07:53 1017 30.03 846 24.98 9.8 49.6 94 8.9 48.1 10.1 0.398
07:54 1017 30.03 846 24.98 9.8 49.6 94 8.9 48.1 10.11 0.398
07:55 1017 30.03 846 24.98 9.8 49.6 95 8.9 48.1 10.13 0.399
07:56 1017 30.03 846 24.98 9.8 49.6 95 8.9 48.1 10.1 0.398
07:57 1017 30.03 846 24.98 9.8 49.6 95 9 48.2 10.15 0.4
07:58 1017 30.03 846 24.98 9.8 49.6 95 9 48.1 10.12 0.398
07:59 1017 30.03 846 24.98 9.8 49.6 95 8.9 48.1 10.12 0.398
08:00 1017 30.03 846 24.98 9.8 49.6 95 9 48.2 10.13 0.399
08:01 1017 30.03 846 24.98 9.8 49.6 95 9 48.1 10.13 0.399
08:02 1017 30.03 846 24.98 9.8 49.6 95 9 48.2 10.12 0.398
08:03 1017 30.03 846 24.98 9.8 49.6 95 9 48.2 10.12 0.398
08:04 1017 30.03 846 24.98 9.8 49.6 95 9 48.3 10.17 0.4
08:05 1017 30.03 846 24.98 9.8 49.7 95 9.1 48.3 10.18 0.401
08:06 1017 30.03 846 24.98 9.8 49.7 95 9.1 48.3 10.2 0.402
08:07 1017 30.03 846 24.98 9.8 49.7 95 9.1 48.3 10.25 0.404
08:08 1017 30.03 846 24.98 9.8 49.7 95 9.1 48.4 10.21 0.402
08:09 1017 30.03 846 24.98 9.8 49.7 95 9.1 48.4 10.24 0.403
08:10 1017 30.03 846 24.98 9.9 49.7 95 9.1 48.4 10.23 0.403
08:11 1017 30.03 846 24.98 9.9 49.7 95 9.1 48.4 10.21 0.402
08:12 1017 30.03 846 24.98 9.8 49.7 95 9.1 48.3 10.22 0.402
08:13 1017 30.03 846 24.98 9.9 49.7 95 9.1 48.4 10.23 0.403
08:14 1017 30.03 846 24.98 9.9 49.8 95 9.1 48.4 10.23 0.403
08:15 1017 30.03 846 24.98 9.9 49.8 95 9.1 48.3 10.23 0.403
08:16 1017 30.03 846 24.98 9.9 49.8 94 9 48.3 10.21 0.402
08:17 1017 30.03 846 24.98 9.9 49.9 95 9.1 48.4 10.26 0.404
08:18 1017 30.03 846 24.98 9.9 49.9 94 9.1 48.4 10.27 0.404
08:19 1017 30.03 846 24.98 9.9 49.9 95 9.1 48.4 10.33 0.407
08:20 1017 30.03 846 24.98 10 49.9 94 9.1 48.4 10.27 0.404
08:21 1017 30.03 846 24.98 10 49.9 95 9.2 48.5 10.34 0.407
08:22 1017 30.03 846 24.98 10 50 95 9.1 48.5 10.31 0.406
08:23 1017 30.03 846 24.98 10 50 95 9.2 48.5 10.34 0.407
08:24 1017 30.03 846 24.98 10 49.9 95 9.1 48.4 10.35 0.407
08:25 1017 30.03 846 24.98 10 49.9 94 9.1 48.4 10.28 0.405
08:26 1017 30.03 846 24.98 10 49.9 95 9.1 48.4 10.28 0.405
08:27 1017 30.03 846 24.98 10 49.9 95 9.1 48.5 10.29 0.405
08:28 1017 30.03 846 24.98 9.9 49.9 95 9.1 48.4 10.31 0.406
08:29 1017 30.03 846 24.98 9.9 49.9 95 9.1 48.4 10.29 0.405
08:30 1017 30.03 846 24.98 9.9 49.9 95 9.2 48.5 10.33 0.407
08:31 1017 30.03 846 24.98 10 50 95 9.2 48.6 10.33 0.407
08:32 1017 30.03 846 24.98 9.9 49.9 95 9.2 48.5 10.32 0.406
08:33 1017 30.03 846 24.98 10 49.9 95 9.2 48.5 10.34 0.407
08:34 1017 30.03 846 24.98 9.9 49.9 95 9.2 48.6 10.32 0.406
08:35 1017 30.03 846 24.98 10 49.9 95 9.2 48.5 10.32 0.406
08:36 1017 30.03 846 24.98 9.9 49.9 95 9.2 48.5 10.31 0.406
08:37 1017 30.03 846 24.98 9.9 49.9 95 9.2 48.6 10.32 0.406
08:38 1017 30.03 846 24.98 9.9 49.9 95 9.2 48.6 10.31 0.406
08:39 1017 30.03 846 24.98 10 49.9 95 9.2 48.6 10.38 0.409
08:40 1017 30.03 846 24.98 10 50 95 9.3 48.7 10.34 0.407
08:41 1017 30.03 846 24.98 10 50 95 9.3 48.7 10.33 0.407
08:42 1017 30.03 846 24.98 10 49.9 95 9.2 48.6 10.34 0.407
08:43 1017 30.03 846 24.98 10 50 95 9.3 48.7 10.38 0.409
08:44 1017 30.03 846 24.98 10 49.9 95 9.3 48.7 10.38 0.409
08:45 1017 30.03 846 24.98 10 50 95 9.3 48.7 10.38 0.409
08:46 1017 30.03 846 24.98 10 50 95 9.3 48.7 10.36 0.408
08:47 1017 30.03 846 24.98 10 50 95 9.3 48.7 10.35 0.407
08:48 1017 30.03 846 24.98 10 50 95 9.3 48.7 10.35 0.407
08:49 1017 30.03 846 24.98 10 50 95 9.3 48.8 10.35 0.407
08:50 1017 30.03 846 24.98 10 50 95 9.3 48.7 10.32 0.406
08:51 1017 30.03 846 24.98 10 50 95 9.3 48.7 10.4 0.409
08:52 1017 30.03 846 24.98 10 50.1 95 9.3 48.8 10.41 0.41
08:53 1017 30.03 846 24.98 10 50.1 95 9.3 48.8 10.39 0.409
08:54 1017 30.03 846 24.98 10 50.1 95 9.3 48.8 10.41 0.41
08:55 1017 30.03 846 24.98 10 50 95 9.3 48.7 10.37 0.408
08:56 1017 30.03 846 24.98 10 50.1 95 9.3 48.8 10.43 0.411
08:57 1017 30.03 846 24.98 10 50.1 96 9.4 48.8 10.44 0.411
08:58 1017 30.03 846 24.98 10.1 50.1 96 9.4 48.9 10.42 0.41
08:59 1017 30.03 846 24.98 10.1 50.1 96 9.4 48.9 10.42 0.41
09:00 1017 30.03 846 24.98 10.1 50.1 96 9.4 48.9 10.46 0.412
09:01 1017 30.03 846 24.98 10.1 50.1 96 9.4 48.9 10.46 0.412
09:02 1017 30.03 846 24.98 10.1 50.1 96 9.4 48.9 10.44 0.411
09:03 1017 30.03 846 24.98 10.1 50.1 95 9.3 48.8 10.41 0.41
09:04 1017 30.03 846 24.98 10.1 50.1 96 9.4 48.9 10.42 0.41
09:05 1017 30.03 846 24.98 10.1 50.2 96 9.4 49 10.45 0.411
09:06 1017 30.03 846 24.98 10.1 50.2 96 9.5 49 10.49 0.413
09:07 1017 30.03 846 24.98 10.1 50.3 96 9.5 49.1 10.53 0.415
09:08 1017 30.03 846 24.98 10.1 50.3 96 9.5 49.1 10.49 0.413
09:09 1017 30.03 846 24.98 10.2 50.3 96 9.5 49.1 10.52 0.414
09:10 1017 30.03 846 24.98 10.2 50.3 96 9.5 49.1 10.54 0.415
09:11 1017 30.03 846 24.98 10.2 50.3 96 9.5 49.1 10.51 0.414
09:12 1017 30.03 846 24.98 10.1 50.2 95 9.4 49 10.52 0.414
09:13 1017 30.03 846 24.98 10.1 50.3 95 9.4 48.9 10.44 0.411
09:14 1017 30.03 846 24.98 10.1 50.2 95 9.3 48.8 10.45 0.411
09:15 1017 30.03 846 24.98 10.1 50.2 95 9.3 48.8 10.45 0.411
09:16 1017 30.03 846 24.98 10.1 50.3 95 9.3 48.8 10.46 0.412
09:17 1017 30.03 846 24.98 10.1 50.2 94 9.2 48.5 10.44 0.411
09:18 1017 30.03 846 24.98 10.2 50.3 94 9.2 48.6 10.47 0.412
09:19 1017 30.03 846 24.98 10.1 50.3 94 9.2 48.6 10.46 0.412
09:20 1017 30.03 846 24.98 10.2 50.3 94 9.3 48.8 10.5 0.413
09:21 1017 30.03 846 24.98 10.2 50.4 94 9.4 48.8 10.53 0.415
09:22 1017 30.03 846 24.98 10.2 50.4 94 9.3 48.8 10.58 0.417
09:23 1017 30.03 846 24.98 10.2 50.4 93 9.1 48.4 10.49 0.413
09:24 1017 30.03 846 24.98 10.2 50.3 93 9.1 48.3 10.47 0.412
09:25 1017 30.03 846 24.98 10.2 50.3 93 9.1 48.4 10.45 0.411
09:26 1017 30.03 846 24.98 10.2 50.3 93 9.2 48.5 10.44 0.411
09:27 1017 30.03 846 24.98 10.2 50.4 94 9.3 48.7 10.55 0.415
09:28 1017 30.03 846 24.98 10.3 50.5 93 9.2 48.6 10.54 0.415
09:29 1017 30.03 846 24.98 10.2 50.4 94 9.2 48.6 10.54 0.415
09:30 1017 30.03 846 24.98 10.3 50.5 93 9.3 48.7 10.58 0.417
09:31 1017 30.03 846 24.98 10.3 50.5 93 9.2 48.5 10.59 0.417
09:32 1017 30.03 846 24.98 10.3 50.5 93 9.2 48.6 10.54 0.415
09:33 1017 30.03 846 24.98 10.3 50.5 92 9.1 48.3 10.54 0.415
09:34 1017 30.03 846 24.98 10.3 50.5 93 9.2 48.6 10.57 0.416
09:35 1017 30.03 846 24.98 10.3 50.6 93 9.3 48.7 10.6 0.417
09:36 1017 30.03 846 24.98 10.3 50.6 93 9.2 48.6 10.62 0.418
09:37 1017 30.03 846 24.98 10.4 50.7 93 9.4 48.9 10.72 0.422
09:38 1017 30.03 846 24.98 10.4 50.8 94 9.4 49 10.71 0.422
09:39 1017 30.03 846 24.98 10.4 50.8 93 9.4 48.8 10.75 0.423
09:40 1017 30.03 846 24.98 10.5 50.8 92 9.3 48.7 10.73 0.422
09:41 1017 30.03 846 24.98 10.5 50.8 93 9.4 48.9 10.75 0.423
09:42 1017 30.03 846 24.98 10.5 50.9 93 9.5 49 10.88 0.428
09:43 1017 30.03 846 24.98 10.6 51 93 9.4 49 10.85 0.427
09:44 1017 30.03 846 24.98 10.6 51 93 9.5 49.1 10.88 0.428
09:45 1017 30.03 846 24.98 10.6 51.1 94 9.6 49.3 10.94 0.431
09:46 1017 30.03 846 24.98 10.6 51.2 92 9.3 48.8 10.88 0.428
09:47 1017 30.03 846 24.98 10.6 51 91 9.2 48.6 10.87 0.428
09:48 1017 30.03 846 24.98 10.7 51.2 93 9.6 49.2 10.91 0.43
09:49 1017 30.03 846 24.98 10.7 51.2 92 9.5 49 10.98 0.432
09:50 1017 30.03 846 24.98 10.7 51.3 93 9.6 49.2 10.97 0.432
09:51 1017 30.03 846 24.98 10.8 51.4 93 9.7 49.5 11.03 0.434
09:52 1017 30.03 846 24.98 10.8 51.4 93 9.7 49.4 11.02 0.434
09:53 1017 30.03 846 24.98 10.7 51.3 93 9.7 49.5 11 0.433
09:54 1017 30.03 846 24.98 10.7 51.2 93 9.6 49.3 10.93 0.43
09:55 1017 30.03 846 24.98 10.7 51.2 94 9.7 49.4 11.01 0.433
09:56 1017 30.03 846 24.98 10.7 51.2 94 9.7 49.5 11.02 0.434
09:57 1017 30.03 846 24.98 10.7 51.2 93 9.6 49.3 10.98 0.432
09:58 1017 30.03 846 24.98 10.7 51.3 93 9.6 49.4 10.96 0.431
09:59 1017 30.03 846 24.98 10.7 51.2 94 9.7 49.5 11.01 0.433
10:00 1017 30.03 846 24.98 10.7 51.3 93 9.6 49.3 11.03 0.434
10:01 1017 30.03 846 24.98 10.7 51.3 94 9.7 49.5 11.06 0.435
10:02 1017 30.03 846 24.98 10.7 51.3 92 9.5 49 11.01 0.433
10:03 1017 30.03 846 24.98 10.7 51.2 92 9.5 49.1 11 0.433
10:04 1017 30.03 846 24.98 10.7 51.3 92 9.5 49.2 10.97 0.432
10:05 1017 30.03 846 24.98 10.7 51.3 92 9.5 49.1 10.98 0.432
10:06 1017 30.03 846 24.98 10.8 51.4 93 9.7 49.4 11.07 0.436
10:07 1017 30.03 846 24.98 10.8 51.4 93 9.6 49.4 11.12 0.438
10:08 1017 30.03 846 24.98 10.8 51.5 93 9.7 49.4 11.16 0.439
10:09 1017 30.03 846 24.98 10.9 51.6 92 9.7 49.4 11.18 0.44
10:10 1017 30.03 846 24.98 11 51.8 93 9.9 49.8 11.3 0.445
10:11 1017 30.03 846 24.98 11 51.9 91 9.6 49.4 11.33 0.446
10:12 1017 30.03 846 24.98 11.1 52 91 9.6 49.3 11.37 0.448
10:13 1017 30.03 846 24.98 11.1 52 88 9.2 48.5 11.33 0.446
10:14 1017 30.03 846 24.98 11.2 52.1 91 9.7 49.4 11.36 0.447
10:15 1017 30.03 846 24.98 11.2 52.1 87 9.1 48.3 11.37 0.448
10:16 1017 30.03 846 24.98 11.2 52.1 88 9.3 48.7 11.35 0.447
10:17 1017 30.03 846 24.98 11.2 52.2 86 9 48.1 11.35 0.447
10:18 1017 30.03 846 24.98 11.2 52.2 91 9.8 49.6 11.43 0.45
10:19 1017 30.03 846 24.98 11.3 52.3 89 9.5 49.1 11.55 0.455
10:20 1017 30.03 846 24.98 11.3 52.4 87 9.2 48.6 11.55 0.455
10:21 1017 30.03 846 24.98 11.4 52.5 87 9.2 48.6 11.55 0.455
10:22 1017 30.03 846 24.98 11.4 52.5 86 9.2 48.5 11.54 0.454
10:23 1017 30.03 846 24.98 11.5 52.6 85 9.1 48.4 11.63 0.458
10:24 1017 30.03 846 24.98 11.5 52.8 89 9.7 49.5 11.76 0.463
10:25 1017 30.03 846 24.98 11.6 52.9 83 8.9 48.1 11.88 0.468
10:26 1017 30.03 846 24.98 11.7 53 85 9.2 48.5 11.86 0.467
10:27 1017 30.03 846 24.98 11.7 53.1 87 9.7 49.4 11.93 0.47
10:28 1017 30.03 846 24.98 11.8 53.2 82 8.9 48 11.93 0.47
10:29 1017 30.03 846 24.98 11.7 53.1 84 9.2 48.5 11.83 0.466
10:30 1017 30.03 846 24.98 11.7 53 82 8.7 47.7 11.81 0.465
10:31 1017 30.03 846 24.98 11.7 53.1 85 9.2 48.6 11.92 0.469
10:32 1017 30.03 846 24.98 11.8 53.2 86 9.5 49 11.95 0.47
10:33 1017 30.03 846 24.98 11.8 53.2 84 9.2 48.5 12 0.472
10:34 1017 30.03 846 24.98 11.8 53.3 86 9.6 49.2 12.06 0.475
10:35 1017 30.03 846 24.98 11.9 53.4 86 9.7 49.4 12.18 0.48
10:36 1017 30.03 846 24.98 11.9 53.5 85 9.5 49 12.22 0.481
10:37 1017 30.03 846 24.98 12 53.7 82 9 48.2 12.29 0.484
10:38 1017 30.03 846 24.98 12.1 53.7 83 9.3 48.8 12.25 0.482
10:39 1017 30.03 846 24.98 12.1 53.8 82 9.1 48.4 12.33 0.485
10:40 1017 30.03 846 24.98 12.1 53.9 82 9.3 48.7 12.36 0.487
10:41 1017 30.03 846 24.98 12.2 53.9 87 10.1 50.2 12.49 0.492
10:42 1017 30.03 846 24.98 12.4 54.3 84 9.7 49.5 12.76 0.502
10:43 1017 30.03 846 24.98 12.6 54.6 86 10.3 50.5 12.87 0.507
10:44 1017 30.03 846 24.98 12.7 54.8 78 9 48.3 12.97 0.511
10:45 1017 30.03 846 24.98 12.7 54.9 83 10 49.9 12.86 0.506
10:46 1017 30.03 846 24.98 12.8 55 85 10.3 50.5 13.04 0.513
10:47 1017 30.03 846 24.98 13.1 55.6 83 10.2 50.4 13.4 0.528
10:48 1017 30.03 846 24.98 13.2 55.8 81 10.1 50.1 13.48 0.531
10:49 1017 30.03 846 24.98 13.3 56 76 9.2 48.6 13.53 0.533
10:50 1017 30.03 846 24.98 13.2 55.8 80 9.8 49.6 13.44 0.529
10:51 1017 30.03 846 24.98 13.1 55.5 77 9.2 48.5 13.38 0.527
10:52 1017 30.03 846 24.98 13 55.4 81 9.8 49.6 13.37 0.526
10:53 1017 30.03 846 24.98 13 55.4 81 9.8 49.7 13.34 0.525
10:54 1017 30.03 846 24.98 12.9 55.2 77 8.9 48.1 13.26 0.522
10:55 1017 30.03 846 24.98 12.9 55.1 83 10.1 50.1 13.25 0.522
10:56 1017 30.03 846 24.98 12.9 55.1 76 8.8 47.8 13.34 0.525
10:57 1017 30.03 846 24.98 12.9 55.1 73 8.1 46.6 13.26 0.522
10:58 1017 30.03 846 24.98 12.8 55.1 80 9.5 49.1 13.29 0.523
10:59 1017 30.03 846 24.98 13 55.3 77 9 48.2 13.46 0.53
11:00 1017 30.03 846 24.98 13 55.4 74 8.6 47.5 13.48 0.531
11:01 1017 30.03 846 24.98 13.1 55.6 78 9.4 48.9 13.54 0.533
11:02 1017 30.03 846 24.98 13.2 55.7 72 8.2 46.8 13.59 0.535
11:03 1017 30.03 846 24.98 13.1 55.6 72 8.2 46.8 13.49 0.531
11:04 1017 30.03 846 24.98 13.1 55.6 74 8.7 47.7 13.47 0.53
11:05 1017 30.03 846 24.98 13.1 55.6 80 9.7 49.5 13.61 0.536
11:06 1017 30.03 846 24.98 13.3 55.9 72 8.3 47 13.75 0.541
11:08 1017 30.03 846 24.98 13.4 56 76 9.3 48.8 13.61 0.536
11:09 1017 30.03 846 24.98 13.3 56 74 8.8 47.9 13.64 0.537
11:10 1017 30.03 846 24.98 13.3 55.9 75 8.9 48 13.57 0.534
11:11 1017 30.03 846 24.98 13.2 55.8 73 8.5 47.2 13.57 0.534
11:12 1017 30.03 846 24.98 13.2 55.8 75 9 48.2 13.61 0.536
11:13 1017 30.03 846 24.98 13.3 55.9 72 8.4 47.1 13.57 0.534
11:14 1017 30.03 846 24.98 13.2 55.7 74 8.7 47.6 13.56 0.534
11:15 1017 30.03 846 24.98 13.3 55.9 73 8.6 47.5 13.72 0.54
11:16 1017 30.03 846 24.98 13.3 56 73 8.6 47.6 13.72 0.54
11:17 1017 30.03 846 24.98 13.4 56.1 74 8.9 48.1 13.79 0.543
11:18 1017 30.03 846 24.98 13.4 56.1 74 8.9 47.9 13.8 0.543
11:19 1017 30.03 846 24.98 13.4 56.1 72 8.6 47.4 13.77 0.542
11:20 1017 30.03 846 24.98 13.4 56.2 73 8.7 47.6 13.82 0.544
11:21 1017 30.03 846 24.98 13.4 56.2 73 8.8 47.9 13.79 0.543
11:22 1016 30 846 24.98 13.5 56.2 71 8.2 46.8 13.87 0.546
11:23 1016 30 846 24.98 13.5 56.2 71 8.3 46.9 13.83 0.544
11:24 1016 30 846 24.98 13.4 56.2 70 8.1 46.7 13.81 0.544
11:25 1017 30.03 846 24.98 13.4 56.1 68 7.8 46 13.79 0.543
11:26 1016 30 846 24.98 13.4 56.2 74 9 48.2 13.83 0.544
11:27 1016 30 846 24.98 13.5 56.3 72 8.6 47.6 13.96 0.55
11:28 1016 30 846 24.98 13.5 56.4 75 9.2 48.5 14.05 0.553
11:29 1016 30 846 24.98 13.6 56.6 73 9 48.2 14.06 0.554
11:30 1016 30 846 24.98 13.6 56.6 71 8.6 47.4 14.01 0.552
11:31 1016 30 846 24.98 13.7 56.7 74 9.2 48.5 14.09 0.555
11:32 1016 30 846 24.98 13.8 56.8 78 10 49.9 14.26 0.561
11:33 1016 30 846 24.98 13.9 57.1 76 9.7 49.5 14.39 0.567
11:34 1016 30 846 24.98 14 57.2 72 9.1 48.4 14.44 0.569
11:35 1016 30 846 24.98 14 57.2 69 8.5 47.3 14.4 0.567
11:36 1016 30 846 24.98 14 57.1 72 9.1 48.4 14.4 0.567
11:37 1016 30 846 24.98 13.9 57.1 71 8.9 48 14.37 0.566
11:38 1016 30 846 24.98 13.9 57.1 72 8.9 48 14.39 0.567
11:39 1016 30 846 24.98 14 57.2 69 8.4 47.1 14.44 0.569
11:40 1016 30 846 24.98 14 57.2 73 9.3 48.8 14.41 0.567
11:41 1016 30 845 24.95 14 57.2 71 8.9 47.9 14.4 0.567
11:42 1016 30 845 24.95 14 57.3 71 8.8 47.9 14.48 0.57
11:43 1016 30 845 24.95 14.1 57.3 75 9.7 49.5 14.56 0.573
11:44 1016 30 845 24.95 14.2 57.6 72 9.3 48.7 14.71 0.579
11:45 1016 30 845 24.95 14.3 57.8 71 9.1 48.5 14.72 0.58
11:46 1016 30 845 24.95 14.4 57.8 68 8.5 47.4 14.75 0.581
11:47 1016 30 845 24.95 14.4 57.9 69 8.8 47.9 14.89 0.586
11:48 1016 30 845 24.95 14.6 58.2 72 9.7 49.5 14.98 0.59
11:49 1016 30 845 24.95 14.9 58.8 80 11.6 52.8 15.35 0.604
11:50 1016 30 845 24.95 15.2 59.4 67 9.2 48.5 15.72 0.619
11:51 1016 30 845 24.95 15.4 59.8 68 9.6 49.2 16.03 0.631
11:52 1016 30 845 24.95 15.6 60 66 9.3 48.8 16.05 0.632
11:53 1016 30 845 24.95 15.6 60.1 68 9.8 49.7 16.16 0.636
11:54 1016 30 845 24.95 15.7 60.2 73 10.8 51.5 16.41 0.646
11:55 1016 30 845 24.95 16 60.8 66 9.7 49.5 16.65 0.656
11:56 1016 30 845 24.95 16.2 61.1 69 10.7 51.2 16.63 0.655
11:57 1016 30 845 24.95 16.2 61.2 62 9 48.2 16.71 0.658
11:58 1016 30 845 24.95 16.4 61.5 70 11 51.8 16.77 0.66
11:59 1016 30 845 24.95 16.6 61.8 71 11.4 52.5 16.96 0.668
12:00 1016 30 845 24.95 16.7 62.1 61 9.3 48.7 17.25 0.679
12:01 1016 30 845 24.95 16.6 61.9 61 9.3 48.7 17.01 0.67
12:02 1016 30 845 24.95 16.5 61.6 65 10 50.1 16.87 0.664
12:03 1016 30 845 24.95 16.4 61.6 61 9 48.3 16.87 0.664
12:04 1016 30 845 24.95 16.5 61.7 56 7.8 46 16.89 0.665
12:05 1016 30 845 24.95 16.5 61.6 64 9.7 49.4 16.77 0.66
12:06 1016 30 845 24.95 16.4 61.6 65 9.9 49.7 16.85 0.663
12:07 1016 30 845 24.95 16.4 61.5 59 8.5 47.4 16.76 0.66
12:08 1016 30 845 24.95 16.5 61.6 61 9 48.2 16.8 0.661
12:09 1016 30 845 24.95 16.5 61.7 58 8.3 46.9 16.86 0.664
12:10 1016 30 845 24.95 16.5 61.7 58 8.3 47 16.96 0.668
12:11 1016 30 845 24.95 16.7 62 60 8.9 48 17.3 0.681
12:12 1016 30 845 24.95 17 62.6 65 10.4 50.6 17.67 0.696
12:13 1016 30 845 24.95 17.3 63.2 61 10 49.9 18.02 0.709
12:14 1016 30 845 24.95 17.4 63.4 63 10.5 50.8 18.15 0.715
12:15 1016 30 845 24.95 17.5 63.5 56 8.7 47.7 18.21 0.717
12:16 1016 30 845 24.95 17.4 63.2 56 8.7 47.6 17.71 0.697
12:17 1016 30 845 24.95 17.2 62.9 63 10.2 50.3 17.53 0.69
12:18 1016 30 845 24.95 17.1 62.8 55 8 46.4 17.52 0.69
12:19 1016 30 845 24.95 16.8 62.3 59 9 48.1 17.26 0.68
12:20 1016 30 845 24.95 16.7 62.1 63 9.6 49.4 17.24 0.679
12:21 1016 30 845 24.95 16.7 62 60 9 48.1 17.2 0.677
12:22 1016 30 845 24.95 16.5 61.7 55 7.4 45.4 16.98 0.669
12:23 1016 30 845 24.95 16.3 61.3 56 7.5 45.5 16.63 0.655
12:24 1016 30 845 24.95 16.1 60.9 65 9.6 49.3 16.46 0.648
12:25 1016 30 845 24.95 16.1 61 65 9.5 49.2 16.63 0.655
12:26 1016 30 845 24.95 16.2 61.2 59 8.3 46.9 16.79 0.661
12:27 1016 30 845 24.95 16.3 61.4 63 9.4 49 16.9 0.665
12:28 1016 30 845 24.95 16.4 61.6 61 8.9 48.1 17.02 0.67
12:29 1016 30 845 24.95 16.6 61.8 61 9.1 48.3 17.15 0.675
12:30 1016 30 845 24.95 16.6 61.9 54 7.5 45.5 17.22 0.678
12:31 1016 30 845 24.95 16.7 62 66 10.3 50.5 17.21 0.678
12:32 1016 30 845 24.95 16.8 62.2 62 9.7 49.4 17.34 0.683
12:33 1016 30 845 24.95 16.9 62.5 57 8.6 47.4 17.48 0.688
12:34 1016 30 845 24.95 16.9 62.4 52 7.1 44.8 17.44 0.687
12:35 1016 30 845 24.95 16.9 62.3 58 8.7 47.6 17.49 0.689
12:36 1016 30 845 24.95 16.9 62.5 52 7.2 44.9 17.66 0.695
12:37 1016 30 845 24.95 17 62.6 53 7.5 45.5 17.78 0.7
12:38 1016 30 845 24.95 17.1 62.7 53 7.6 45.6 17.72 0.698
12:39 1016 30 845 24.95 17.1 62.8 58 8.8 47.9 17.69 0.696
12:40 1016 30 845 24.95 17.1 62.8 59 9.1 48.3 17.77 0.7
12:41 1016 30 845 24.95 16.9 62.5 57 8.6 47.4 17.59 0.693
12:42 1016 30 845 24.95 16.8 62.2 59 8.7 47.6 17.42 0.686
12:43 1016 30 845 24.95 16.6 61.9 60 9 48.1 17.25 0.679
12:44 1016 30 845 24.95 16.6 61.9 60 9 48.2 17.26 0.68
12:45 1016 30 845 24.95 16.7 62.1 56 8.1 46.6 17.36 0.683
12:46 1016 30 845 24.95 16.8 62.3 60 9.1 48.4 17.43 0.686
12:47 1016 30 845 24.95 16.8 62.3 60 9.1 48.4 17.43 0.686
12:48 1016 30 845 24.95 17 62.5 56 8.3 46.9 17.55 0.691
12:49 1016 30 845 24.95 17.3 63.2 55 8.4 47.1 17.97 0.707
12:50 1016 30 845 24.95 17.7 63.8 51 7.6 45.6 18.27 0.719
12:51 1016 30 845 24.95 18 64.4 52 8 46.4 18.58 0.731
12:52 1016 30 845 24.95 18.4 65.1 58 10 50 18.92 0.745
12:53 1016 30 845 24.95 18.5 65.2 57 9.9 49.8 19.07 0.751
12:54 1016 30 845 24.95 18.4 65.2 54 9 48.2 19.02 0.749
12:55 1016 30 845 24.95 18.2 64.7 61 10.5 50.9 18.83 0.741
12:56 1016 30 845 24.95 18.1 64.6 53 8.4 47.2 18.84 0.742
12:57 1016 30 845 24.95 18.1 64.5 62 10.9 51.6 18.69 0.736
12:58 1016 30 845 24.95 18.1 64.5 51 7.9 46.2 18.82 0.741
12:59 1016 30 845 24.95 17.9 64.3 53 8.4 47.2 18.69 0.736
13:00 1016 30 845 24.95 17.9 64.2 58 9.5 49.1 18.65 0.734
13:01 1016 30 845 24.95 18 64.4 56 9.3 48.7 18.72 0.737
13:02 1016 30 845 24.95 17.8 64.1 59 9.7 49.5 18.47 0.727
13:03 1016 30 845 24.95 17.6 63.7 54 8.2 46.8 18.26 0.719
13:04 1016 30 845 24.95 17.5 63.4 54 8.3 46.9 18.1 0.713
13:05 1016 30 845 24.95 17.3 63.1 56 8.6 47.5 17.87 0.704
13:06 1016 30 845 24.95 17.1 62.7 57 8.6 47.4 17.68 0.696
13:07 1016 30 845 24.95 17.1 62.8 57 8.7 47.7 17.72 0.698
13:08 1016 30 845 24.95 17.3 63.1 58 9.2 48.5 17.79 0.7
13:09 1016 30 845 24.95 17.4 63.2 57 8.7 47.7 17.77 0.7
13:10 1016 30 845 24.95 17.4 63.4 57 9 48.2 17.72 0.698
13:11 1016 30 845 24.95 17.5 63.5 53 7.9 46.2 17.79 0.7
13:12 1016 30 845 24.95 17.4 63.3 54 8 46.4 17.74 0.698
13:13 1016 30 845 24.95 17.3 63.2 62 10.1 50.1 17.72 0.698
13:14 1016 30 845 24.95 17.3 63.1 60 9.6 49.3 17.72 0.698
13:15 1016 30 845 24.95 17.2 62.9 58 8.9 48 17.65 0.695
13:16 1016 30 845 24.95 17 62.5 58 8.8 47.8 17.48 0.688
13:17 1016 30 845 24.95 16.8 62.3 56 8.1 46.6 17.33 0.682
13:18 1016 30 845 24.95 16.7 62.1 58 8.4 47.2 17.24 0.679
13:19 1016 30 845 24.95 16.7 62 56 7.9 46.2 17.18 0.676
13:20 1016 30 845 24.95 16.7 62.1 62 9.4 48.9 17.19 0.677
13:21 1016 30 845 24.95 16.7 62.1 65 10.1 50.3 17.29 0.681
13:22 1016 30 845 24.95 16.8 62.3 63 9.8 49.6 17.44 0.687
13:23 1016 30 845 24.95 16.8 62.3 63 9.8 49.6 17.39 0.685
13:24 1016 30 845 24.95 16.8 62.2 61 9.4 48.9 17.33 0.682
13:25 1016 30 845 24.95 16.7 62.1 64 9.9 49.9 17.33 0.682
13:26 1016 30 845 24.95 16.6 61.9 67 10.6 51.1 17.17 0.676
13:27 1016 30 845 24.95 16.5 61.6 71 11.3 52.3 17.11 0.674
13:28 1016 30 845 24.95 16.4 61.5 69 10.8 51.5 17.06 0.672
13:29 1016 30 845 24.95 16.4 61.6 68 10.6 51.1 17.09 0.673
13:30 1016 30 845 24.95 16.4 61.5 62 9.2 48.6 16.97 0.668
13:31 1016 30 845 24.95 16.4 61.4 63 9.5 49 16.86 0.664
13:32 1016 30 845 24.95 16.4 61.5 57 7.9 46.2 16.94 0.667
13:33 1016 30 845 24.95 16.5 61.7 60 8.8 47.9 17.08 0.672
13:34 1016 30 845 24.95 16.8 62.2 65 10.2 50.3 17.36 0.683
13:35 1016 30 845 24.95 17.2 62.9 62 9.9 49.8 17.77 0.7
13:36 1016 30 845 24.95 17.4 63.3 64 10.5 50.9 17.91 0.705
13:37 1016 30 845 24.95 17.4 63.3 56 8.5 47.3 17.97 0.707
13:38 1016 30 845 24.95 17.4 63.3 55 8.4 47.1 18.03 0.71
13:39 1016 30 845 24.95 17.5 63.5 64 10.8 51.5 18.12 0.713
13:40 1016 30 845 24.95 17.7 63.8 61 10.1 50.2 18.22 0.717
13:41 1016 30 845 24.95 17.6 63.7 51 7.4 45.2 18.15 0.715
13:42 1015 29.97 845 24.95 17.6 63.7 53 8 46.3 18.06 0.711
13:43 1015 29.97 845 24.95 17.6 63.7 55 8.7 47.6 18.17 0.715
13:44 1015 29.97 845 24.95 17.7 63.9 62 10.4 50.6 18.29 0.72
13:45 1015 29.97 845 24.95 17.9 64.2 62 10.6 51.2 18.58 0.731
13:46 1015 29.97 845 24.95 18 64.3 62 10.6 51.1 18.7 0.736
13:47 1015 29.97 845 24.95 18 64.4 62 10.8 51.4 18.73 0.737
13:48 1015 29.97 845 24.95 18 64.4 52 8.2 46.7 18.64 0.734
13:49 1015 29.97 845 24.95 18 64.4 56 9.2 48.5 18.56 0.731
13:50 1015 29.97 845 24.95 18.1 64.6 56 9.2 48.5 18.72 0.737
13:51 1015 29.97 845 24.95 18.1 64.6 58 9.7 49.5 18.74 0.738
13:52 1015 29.97 845 24.95 18.1 64.6 53 8.6 47.4 18.71 0.737
13:53 1015 29.97 845 24.95 18.1 64.6 63 11.1 52 18.79 0.74
13:54 1015 29.97 845 24.95 18.1 64.6 59 10.1 50.1 18.74 0.738
13:55 1015 29.97 845 24.95 18 64.5 56 9.2 48.6 18.65 0.734
13:56 1015 29.97 845 24.95 18.1 64.5 61 10.5 51 18.72 0.737
13:57 1015 29.97 845 24.95 18.2 64.7 57 9.5 49.1 18.81 0.741
13:58 1015 29.97 845 24.95 18.1 64.6 64 11.3 52.4 18.74 0.738
13:59 1015 29.97 845 24.95 18 64.4 55 8.9 48 18.63 0.733
14:00 1015 29.97 845 24.95 17.7 63.9 53 8.1 46.7 18.27 0.719
14:01 1015 29.97 845 24.95 17.4 63.4 52 7.7 45.9 17.97 0.707
14:02 1015 29.97 845 24.95 17.3 63.1 55 8.4 47.1 17.88 0.704
14:03 1015 29.97 845 24.95 17.2 62.9 57 8.8 47.9 17.78 0.7
14:04 1015 29.97 845 24.95 17.1 62.8 59 9 48.3 17.67 0.696
14:05 1015 29.97 845 24.95 17.1 62.8 60 9.3 48.8 17.72 0.698
14:06 1015 29.97 845 24.95 17.1 62.8 58 8.9 48 17.7 0.697
14:07 1015 29.97 845 24.95 17.2 63 62 10 49.9 17.79 0.7
14:08 1015 29.97 845 24.95 17.3 63.2 61 9.7 49.5 17.94 0.706
14:09 1015 29.97 845 24.95 17.6 63.6 63 10.6 51.1 18.2 0.717
14:10 1015 29.97 844 24.92 17.8 64 63 10.8 51.4 18.33 0.722
14:11 1015 29.97 844 24.92 17.9 64.1 62 10.6 51.1 18.42 0.725
14:12 1015 29.97 845 24.95 17.9 64.3 61 10.3 50.6 18.53 0.73
14:13 1015 29.97 845 24.95 18 64.4 58 9.7 49.4 18.55 0.73
14:14 1015 29.97 845 24.95 18 64.3 65 11.4 52.5 18.54 0.73
14:15 1015 29.97 845 24.95 18.1 64.5 54 8.8 47.9 18.63 0.733
14:16 1015 29.97 845 24.95 17.9 64.3 65 11.4 52.6 18.5 0.728
14:17 1015 29.97 845 24.95 18.1 64.5 59 10.1 50.2 18.62 0.733
14:18 1015 29.97 845 24.95 18 64.3 57 9.5 49.1 18.52 0.729
14:19 1015 29.97 845 24.95 18 64.3 64 11.1 52 18.51 0.729
14:20 1015 29.97 845 24.95 18.2 64.7 55 9.1 48.4 18.67 0.735
14:21 1015 29.97 845 24.95 18.4 65.2 54 9.1 48.4 18.92 0.745
14:22 1015 29.97 845 24.95 18.6 65.4 56 9.8 49.7 19.12 0.753
14:23 1015 29.97 845 24.95 18.6 65.5 53 9 48.2 19.2 0.756
14:24 1015 29.97 845 24.95 18.5 65.3 61 11 51.7 19.08 0.751
14:25 1015 29.97 845 24.95 18.6 65.5 57 10.1 50.2 19.23 0.757
14:26 1015 29.97 845 24.95 18.5 65.2 57 9.8 49.7 19.09 0.752
14:27 1015 29.97 845 24.95 18.3 65 59 10.4 50.7 18.93 0.745
14:28 1015 29.97 845 24.95 18.2 64.7 56 9.5 49.1 18.77 0.739
14:29 1015 29.97 845 24.95 18 64.5 58 9.7 49.5 18.59 0.732
14:30 1015 29.97 845 24.95 18.1 64.6 57 9.5 49.2 18.65 0.734
14:31 1015 29.97 845 24.95 18.2 64.8 62 11 51.7 18.79 0.74
14:32 1015 29.97 845 24.95 18.5 65.2 53 8.8 47.9 19.02 0.749
14:33 1015 29.97 845 24.95 18.5 65.3 60 10.8 51.4 19 0.748
14:34 1015 29.97 845 24.95 18.6 65.5 58 10.2 50.4 19.23 0.757
14:35 1015 29.97 845 24.95 18.7 65.7 59 10.6 51.1 19.28 0.759
14:36 1015 29.97 845 24.95 18.7 65.6 53 9.1 48.4 19.25 0.758
14:37 1015 29.97 844 24.92 18.6 65.4 48 7.4 45.3 19.1 0.752
14:38 1015 29.97 844 24.92 18.3 65 53 8.8 47.9 18.81 0.741
14:39 1015 29.97 844 24.92 18 64.3 51 7.7 45.9 18.51 0.729
14:40 1015 29.97 845 24.95 17.8 64 57 9.3 48.7 18.33 0.722
14:41 1015 29.97 845 24.95 17.7 63.8 59 9.6 49.3 18.28 0.72
14:42 1015 29.97 845 24.95 17.7 63.8 59 9.7 49.4 18.24 0.718
14:43 1015 29.97 845 24.95 17.6 63.6 56 8.9 48.1 18.1 0.713
14:44 1015 29.97 845 24.95 17.4 63.4 60 9.6 49.3 17.96 0.707
14:45 1015 29.97 845 24.95 17.4 63.4 62 10.2 50.4 17.98 0.708
14:46 1015 29.97 845 24.95 17.6 63.7 66 11.3 52.3 18.2 0.717
14:47 1015 29.97 845 24.95 17.6 63.6 62 10.3 50.5 18.13 0.714
14:48 1015 29.97 845 24.95 17 62.6 65 10.4 50.7 17.48 0.688
14:49 1015 29.97 845 24.95 16.3 61.3 65 9.8 49.6 16.69 0.657
14:50 1016 30 845 24.95 15.7 60.3 68 9.9 49.7 16.15 0.636
14:51 1016 30 845 24.95 15.4 59.6 68 9.5 49 15.85 0.624
14:52 1016 30 845 24.95 15.1 59.2 67 9.2 48.5 15.58 0.613
14:53 1016 30 845 24.95 15 59 69 9.5 49.1 15.44 0.608
14:54 1016 30 845 24.95 14.9 58.7 69 9.2 48.6 15.33 0.604
14:55 1016 30 845 24.95 14.8 58.6 70 9.3 48.8 15.18 0.598
14:56 1016 30 845 24.95 14.7 58.5 68 9 48.2 15.1 0.594
14:57 1016 30 845 24.95 14.5 58.1 71 9.4 48.8 14.92 0.587
14:58 1016 30 845 24.95 14.3 57.7 73 9.6 49.3 14.73 0.58
14:59 1016 30 845 24.95 14.1 57.3 72 9.1 48.5 14.54 0.572
15:00 1016 30 845 24.95 13.9 56.9 72 9 48.2 14.27 0.562
15:01 1016 30 845 24.95 13.5 56.3 75 9.3 48.7 13.97 0.55
15:02 1016 30 845 24.95 13.2 55.8 77 9.4 48.8 13.7 0.539
15:03 1016 30 845 24.95 12.9 55.2 78 9.1 48.3 13.36 0.526
15:04 1016 30 845 24.95 12.6 54.7 79 9.1 48.4 13.14 0.517
15:05 1016 30 845 24.95 12.5 54.4 80 9 48.3 12.94 0.509
15:06 1016 30 845 24.95 12.3 54.1 81 9 48.2 12.79 0.504
15:07 1016 30 845 24.95 12.1 53.7 81 8.9 48.1 12.61 0.496
15:08 1016 30 845 24.95 12 53.5 81 8.8 47.8 12.5 0.492
15:09 1016 30 845 24.95 11.9 53.4 79 8.3 47 12.35 0.486
15:10 1016 30 845 24.95 11.9 53.4 80 8.6 47.5 12.33 0.485
15:11 1016 30 845 24.95 11.8 53.3 80 8.5 47.2 12.29 0.484
15:12 1016 30 845 24.95 11.9 53.3 80 8.6 47.4 12.25 0.482
15:13 1016 30 845 24.95 11.8 53.2 80 8.5 47.3 12.26 0.483
15:14 1016 30 845 24.95 11.8 53.3 78 8.1 46.6 12.25 0.482
15:15 1016 30 845 24.95 11.8 53.3 80 8.6 47.4 12.21 0.481
15:16 1016 30 845 24.95 11.8 53.3 80 8.5 47.4 12.22 0.481
15:17 1016 30 845 24.95 11.9 53.3 81 8.8 47.8 12.22 0.481
15:18 1016 30 845 24.95 11.9 53.4 83 9 48.3 12.26 0.483
15:19 1016 30 845 24.95 11.9 53.4 82 9 48.2 12.28 0.483
15:20 1016 30 845 24.95 11.9 53.5 84 9.4 48.9 12.32 0.485
15:21 1016 30 845 24.95 12 53.6 84 9.5 49 12.38 0.487
15:22 1016 30 845 24.95 12 53.6 81 8.8 47.8 12.41 0.489
15:23 1016 30 845 24.95 12.1 53.7 78 8.4 47.1 12.42 0.489
15:24 1016 30 845 24.95 12.3 54.1 74 7.9 46.2 12.58 0.495
15:25 1016 30 845 24.95 12.5 54.5 78 8.7 47.7 12.75 0.502
15:26 1016 30 845 24.95 12.7 54.8 79 9.1 48.5 12.98 0.511
15:27 1016 30 845 24.95 12.8 55 78 9 48.1 13.09 0.515
15:28 1016 30 845 24.95 12.9 55.1 77 9 48.3 13.16 0.518
15:29 1016 30 845 24.95 12.9 55.3 79 9.4 48.9 13.28 0.523
15:30 1016 30 845 24.95 13 55.4 77 9.1 48.5 13.36 0.526
15:31 1016 30 845 24.95 13 55.5 79 9.5 49.1 13.42 0.528
15:32 1016 30 845 24.95 13.1 55.5 80 9.7 49.5 13.47 0.53
15:33 1016 30 845 24.95 13.1 55.6 81 9.9 49.8 13.54 0.533
15:34 1016 30 845 24.95 13.2 55.7 82 10.2 50.3 13.55 0.533
15:35 1016 30 845 24.95 13.2 55.7 81 10 50 13.61 0.536
15:36 1016 30 845 24.95 13.2 55.7 80 9.8 49.7 13.62 0.536
15:37 1016 30 845 24.95 13.2 55.8 80 9.9 49.9 13.62 0.536
15:38 1016 30 845 24.95 13.3 55.9 81 10.1 50.2 13.7 0.539
15:39 1016 30 845 24.95 13.3 55.9 82 10.3 50.6 13.73 0.541
15:40 1016 30 845 24.95 13.3 56 82 10.3 50.5 13.76 0.542
15:41 1016 30 845 24.95 13.4 56 81 10.3 50.5 13.76 0.542
15:42 1016 30 845 24.95 13.3 56 82 10.4 50.7 13.77 0.542
15:43 1016 30 845 24.95 13.4 56.1 84 10.8 51.5 13.82 0.544
15:44 1016 30 845 24.95 13.4 56.1 84 10.8 51.4 13.82 0.544
15:45 1016 30 845 24.95 13.4 56.1 84 10.8 51.4 13.77 0.542
15:46 1016 30 845 24.95 13.3 56 85 10.8 51.4 13.76 0.542
15:47 1016 30 845 24.95 13.3 56 85 10.8 51.4 13.72 0.54
15:48 1016 30 845 24.95 13.3 56 87 11.2 52.2 13.83 0.544
15:49 1016 30 845 24.95 13.4 56.1 84 10.8 51.5 13.84 0.545
15:50 1016 30 845 24.95 13.4 56.1 84 10.8 51.4 13.82 0.544
15:51 1016 30 845 24.95 13.4 56.1 84 10.7 51.3 13.76 0.542
15:52 1016 30 845 24.95 13.4 56.1 76 9.4 48.8 13.7 0.539
15:53 1016 30 845 24.95 13.4 56.2 79 9.9 49.8 13.67 0.538
15:54 1016 30 845 24.95 13.4 56.2 79 9.9 49.9 13.73 0.541
15:55 1016 30 845 24.95 13.4 56.2 79 9.8 49.6 13.72 0.54
15:56 1016 30 845 24.95 13.4 56.1 81 10.3 50.5 13.7 0.539
15:57 1016 30 845 24.95 13.4 56.1 82 10.4 50.8 13.75 0.541
15:58 1016 30 845 24.95 13.3 56 81 10.2 50.3 13.69 0.539
15:59 1016 30 845 24.95 13.3 56 80 9.9 49.9 13.65 0.537
16:00 1016 30 845 24.95 13.3 55.9 79 9.8 49.7 13.6 0.535
16:01 1016 30 845 24.95 13.3 55.9 79 9.8 49.7 13.58 0.535
16:02 1016 30 845 24.95 13.3 55.9 78 9.5 49 13.54 0.533
16:03 1016 30 845 24.95 13.3 55.9 79 9.7 49.4 13.55 0.533
16:04 1016 30 845 24.95 13.2 55.8 78 9.5 49 13.57 0.534
16:05 1016 30 845 24.95 13.4 56 78 9.6 49.3 13.63 0.537
16:06 1016 30 845 24.95 13.4 56 76 9.2 48.5 13.73 0.541
16:07 1016 30 845 24.95 13.5 56.2 79 9.9 49.8 13.76 0.542
16:08 1016 30 845 24.95 13.6 56.4 80 10.3 50.5 13.94 0.549
16:09 1016 30 845 24.95 13.7 56.7 81 10.5 51 14.11 0.556
16:10 1016 30 845 24.95 13.8 56.9 75 9.5 49.1 14.25 0.561
16:11 1016 30 845 24.95 13.9 57 73 9.2 48.6 14.18 0.558
16:12 1016 30 846 24.98 14 57.1 75 9.6 49.2 14.23 0.56
16:13 1016 30 845 24.95 14 57.3 69 8.5 47.3 14.32 0.564
16:14 1016 30 845 24.95 14 57.2 74 9.5 49.1 14.26 0.561
16:15 1016 30 845 24.95 14.1 57.4 70 8.8 47.8 14.41 0.567
16:16 1016 30 845 24.95 14.2 57.6 75 9.8 49.7 14.47 0.57
16:17 1016 30 845 24.95 14.3 57.7 70 8.9 48 14.56 0.573
16:18 1016 30 845 24.95 14.4 57.9 74 9.9 49.8 14.69 0.578
16:19 1016 30 846 24.98 14.5 58.1 71 9.3 48.8 14.84 0.584
16:20 1016 30 846 24.98 14.6 58.3 69 9.1 48.4 14.92 0.587
16:21 1016 30 845 24.95 14.8 58.6 74 10.2 50.4 15.09 0.594
16:22 1016 30 845 24.95 14.9 58.8 74 10.4 50.8 15.41 0.607
16:23 1016 30 845 24.95 15 59 72 10.1 50.2 15.58 0.613
16:24 1016 30 845 24.95 15 59.1 73 10.2 50.4 15.64 0.616
16:25 1016 30 845 24.95 15.1 59.2 74 10.5 50.9 15.83 0.623
16:26 1016 30 845 24.95 15.1 59.2 69 9.4 49 15.87 0.625
16:27 1016 30 845 24.95 15.1 59.2 73 10.4 50.7 15.89 0.626
16:28 1016 30 845 24.95 15.2 59.3 73 10.4 50.8 15.93 0.627
16:29 1016 30 845 24.95 15.2 59.4 70 9.8 49.7 16 0.63
16:30 1016 30 845 24.95 15.3 59.6 74 10.7 51.2 16.13 0.635
16:31 1016 30 845 24.95 15.4 59.6 71 10.1 50.2 16.18 0.637
16:32 1016 30 845 24.95 15.3 59.6 76 11.1 51.9 16.14 0.635
16:33 1016 30 845 24.95 15.4 59.8 76 11.3 52.4 16.29 0.641
16:34 1016 30 845 24.95 15.5 59.9 76 11.3 52.4 16.32 0.643
16:35 1016 30 845 24.95 15.5 59.9 70 10.2 50.3 16.27 0.641
16:36 1016 30 845 24.95 15.3 59.6 69 9.7 49.5 16.08 0.633
16:37 1016 30 845 24.95 15.2 59.3 67 9.1 48.4 15.93 0.627
16:38 1016 30 845 24.95 15.3 59.5 73 10.5 50.9 15.96 0.628
16:39 1016 30 845 24.95 15.3 59.5 65 8.9 48 15.99 0.63
16:40 1016 30 845 24.95 15.3 59.5 71 10.1 50.2 16.06 0.632
16:41 1016 30 845 24.95 15.5 59.9 69 10 50 16.17 0.637
16:42 1016 30 845 24.95 15.6 60 71 10.4 50.8 16.11 0.634
16:43 1016 30 845 24.95 15.6 60.1 65 9.1 48.5 16.06 0.632
16:44 1016 30 845 24.95 15.6 60.1 70 10.2 50.4 16.03 0.631
16:45 1016 30 845 24.95 15.7 60.3 65 9.2 48.6 16.21 0.638
16:46 1016 30 845 24.95 15.9 60.6 71 10.7 51.2 16.31 0.642
16:47 1016 30 845 24.95 16 60.9 69 10.4 50.8 16.47 0.648
16:48 1016 30 845 24.95 16.2 61.2 64 9.5 49.1 16.58 0.653
16:49 1016 30 845 24.95 16.4 61.4 62 9.1 48.3 16.65 0.656
16:50 1016 30 845 24.95 16.4 61.6 66 10.2 50.3 16.66 0.656
16:51 1016 30 845 24.95 16.6 61.8 62 9.4 48.9 16.85 0.663
16:52 1016 30 845 24.95 16.8 62.2 65 10.3 50.5 17.11 0.674
16:53 1016 30 845 24.95 16.9 62.3 64 10.2 50.3 17.23 0.678
16:54 1016 30 845 24.95 16.7 62.1 63 9.7 49.4 17.2 0.677
16:55 1016 30 845 24.95 16.6 61.8 66 10.4 50.6 17.07 0.672
16:56 1016 30 845 24.95 16.5 61.6 63 9.5 49 17.05 0.671
16:57 1016 30 845 24.95 16.4 61.6 66 10.2 50.4 17.04 0.671
16:58 1016 30 845 24.95 16.5 61.7 62 9.2 48.5 17.08 0.672
16:59 1016 30 845 24.95 16.5 61.8 61 9.2 48.5 17.01 0.67
17:00 1016 30 845 24.95 16.6 61.8 60 9 48.2 16.98 0.669
17:01 1016 30 845 24.95 16.8 62.2 63 9.8 49.7 17.08 0.672
17:02 1016 30 845 24.95 16.9 62.4 62 9.7 49.4 17.18 0.676
17:03 1016 30 845 24.95 17 62.6 62 9.8 49.6 17.23 0.678
17:04 1016 30 845 24.95 17.2 63 66 10.9 51.6 17.35 0.683
17:05 1016 30 845 24.95 17.3 63.2 63 10.4 50.7 17.48 0.688
17:06 1016 30 845 24.95 17.4 63.3 67 11.3 52.4 17.53 0.69
17:07 1016 30 845 24.95 17.5 63.5 63 10.5 50.9 17.66 0.695
17:08 1016 30 845 24.95 17.5 63.4 60 9.8 49.7 17.47 0.688
17:09 1016 30 845 24.95 17.3 63.1 67 11.1 52 17.31 0.681
17:10 1016 30 845 24.95 17.3 63.2 66 11 51.8 17.51 0.689
17:11 1016 30 845 24.95 17.3 63.2 58 9.1 48.5 17.6 0.693
17:12 1016 30 845 24.95 17.2 62.9 65 10.6 51 17.52 0.69
17:13 1016 30 845 24.95 17.3 63.1 65 10.7 51.3 17.71 0.697
17:14 1016 30 845 24.95 17.5 63.4 59 9.4 48.9 17.78 0.7
17:15 1016 30 845 24.95 17.5 63.4 63 10.5 50.8 17.63 0.694
17:16 1016 30 845 24.95 17.4 63.4 63 10.4 50.7 17.48 0.688
17:17 1016 30 845 24.95 17.3 63.2 64 10.5 50.8 17.45 0.687
17:18 1016 30 845 24.95 17.3 63.1 61 9.6 49.4 17.38 0.684
17:19 1016 30 845 24.95 17.1 62.8 63 10 50.1 17.21 0.678
17:20 1016 30 845 24.95 16.9 62.4 60 9.2 48.5 17.06 0.672
17:21 1016 30 845 24.95 16.6 62 62 9.4 48.9 16.85 0.663
17:22 1016 30 845 24.95 16.4 61.6 63 9.3 48.8 16.68 0.657
17:23 1016 30 845 24.95 16.4 61.5 62 9.1 48.4 16.67 0.656
17:24 1016 30 845 24.95 16.4 61.5 63 9.5 49 16.52 0.65
17:25 1016 30 845 24.95 16.3 61.4 65 9.8 49.7 16.56 0.652
17:26 1016 30 845 24.95 16.4 61.5 65 9.9 49.8 16.76 0.66
17:27 1016 30 845 24.95 16.5 61.7 64 9.7 49.5 16.81 0.662
17:28 1016 30 845 24.95 16.7 62 64 9.9 49.8 16.99 0.669
17:29 1016 30 845 24.95 16.7 62.1 61 9.2 48.5 17.07 0.672
17:30 1016 30 845 24.95 16.7 62.1 61 9.2 48.5 17.11 0.674
17:31 1016 30 845 24.95 16.8 62.3 62 9.7 49.4 17.1 0.673
17:32 1016 30 845 24.95 16.8 62.3 63 9.8 49.6 17.04 0.671
17:33 1016 30 845 24.95 16.9 62.4 67 10.7 51.3 17.11 0.674
17:34 1016 30 845 24.95 17.1 62.8 61 9.6 49.2 17.33 0.682
17:35 1016 30 845 24.95 17.1 62.9 63 10.1 50.1 17.39 0.685
17:36 1016 30 845 24.95 17.2 62.9 62 9.9 49.8 17.39 0.685
17:37 1016 30 845 24.95 17.3 63.1 59 9.4 48.8 17.42 0.686
17:38 1016 30 845 24.95 17.3 63.1 62 10.1 50.1 17.48 0.688
17:39 1016 30 845 24.95 17.3 63.2 64 10.5 50.9 17.47 0.688
17:40 1016 30 845 24.95 17.2 62.9 64 10.4 50.8 17.35 0.683
17:41 1016 30 845 24.95 17 62.7 59 9 48.2 17.24 0.679
17:42 1016 30 845 24.95 16.9 62.3 62 9.6 49.4 17.02 0.67
17:43 1016 30 845 24.95 16.8 62.3 66 10.6 51.1 17.03 0.67
17:44 1016 30 845 24.95 17 62.6 61 9.6 49.3 17.28 0.68
17:45 1016 30 845 24.95 17.2 62.9 60 9.4 49 17.34 0.683
17:46 1016 30 845 24.95 17.2 62.9 60 9.3 48.8 17.22 0.678
17:47 1016 30 845 24.95 17.1 62.9 61 9.7 49.4 17.25 0.679
17:48 1016 30 845 24.95 17.2 62.9 60 9.4 48.9 17.49 0.689
17:49 1016 30 845 24.95 17.2 62.9 58 8.9 48 17.72 0.698
17:50 1016 30 845 24.95 17.2 63 58 8.9 47.9 17.88 0.704
17:51 1016 30 845 24.95 17.3 63.1 59 9.3 48.7 18.07 0.711
17:52 1016 30 845 24.95 17.5 63.6 61 10 50.1 18.35 0.722
17:53 1016 30 845 24.95 17.8 64.1 58 9.6 49.2 18.47 0.727
17:54 1016 30 845 24.95 17.9 64.2 57 9.3 48.7 18.44 0.726
17:55 1016 30 845 24.95 18 64.3 57 9.4 49 18.42 0.725
17:56 1016 30 845 24.95 18 64.4 59 10 50.1 18.43 0.726
17:57 1016 30 845 24.95 17.9 64.2 57 9.3 48.8 18.25 0.719
17:58 1016 30 845 24.95 17.6 63.6 56 8.8 47.9 18.01 0.709
17:59 1016 30 845 24.95 17.4 63.2 56 8.6 47.4 17.86 0.703
18:00 1016 30 845 24.95 17.2 63 61 9.7 49.5 17.75 0.699
18:01 1016 30 845 24.95 17.2 63 63 10.1 50.2 17.72 0.698
18:02 1016 30 845 24.95 17.2 62.9 57 8.8 47.8 17.73 0.698
18:03 1016 30 845 24.95 17.2 62.9 61 9.7 49.4 17.7 0.697
18:04 1016 30 845 24.95 17.2 63 59 9.2 48.5 17.7 0.697
18:05 1016 30 845 24.95 17.2 63 59 9.3 48.8 17.6 0.693
18:06 1016 30 845 24.95 17.2 62.9 61 9.6 49.2 17.55 0.691
18:07 1016 30 845 24.95 17.3 63.1 56 8.6 47.5 17.66 0.695
18:08 1016 30 845 24.95 17.4 63.3 58 9.2 48.6 17.63 0.694
18:09 1016 30 845 24.95 17.3 63.2 55 8.4 47.1 17.54 0.691
18:10 1016 30 845 24.95 17.3 63.2 58 9.2 48.5 17.59 0.693
18:11 1016 30 845 24.95 17.4 63.4 54 8.2 46.7 17.72 0.698
18:12 1016 30 845 24.95 17.5 63.5 53 7.9 46.3 17.73 0.698
18:13 1016 30 845 24.95 17.3 63.2 59 9.3 48.8 17.51 0.689
18:14 1016 30 845 24.95 17.3 63.1 60 9.5 49.1 17.45 0.687
18:15 1016 30 845 24.95 17.1 62.8 60 9.2 48.6 17.21 0.678
18:16 1016 30 845 24.95 16.9 62.4 56 8.1 46.6 17 0.669
18:17 1016 30 845 24.95 16.8 62.2 55 7.9 46.1 16.98 0.669
18:18 1016 30 845 24.95 16.7 62.1 58 8.5 47.2 16.9 0.665
18:19 1016 30 845 24.95 16.7 62.1 58 8.5 47.3 16.94 0.667
18:20 1016 30 845 24.95 16.7 62 56 8 46.4 16.96 0.668
18:21 1016 30 845 24.95 16.7 62 62 9.5 49.1 16.98 0.669
18:22 1016 30 845 24.95 16.6 61.9 61 9.1 48.4 17 0.669
18:23 1016 30 845 24.95 16.5 61.8 61 9.1 48.4 16.93 0.667
18:24 1016 30 845 24.95 16.5 61.7 63 9.5 49.2 16.91 0.666
18:25 1016 30 845 24.95 16.5 61.8 61 9 48.3 16.88 0.665
18:26 1016 30 845 24.95 16.6 61.8 61 9 48.2 16.86 0.664
18:27 1016 30 845 24.95 16.6 61.8 66 10.4 50.7 16.86 0.664
18:28 1016 30 845 24.95 16.6 62 64 10 50 16.88 0.665
18:29 1016 30 845 24.95 16.7 62 63 9.6 49.3 16.92 0.666
18:30 1016 30 845 24.95 16.7 62.1 62 9.6 49.2 16.89 0.665
18:31 1016 30 845 24.95 16.7 62 60 9 48.2 16.83 0.663
18:32 1016 30 845 24.95 16.6 61.8 61 9.2 48.5 16.78 0.661
18:33 1016 30 845 24.95 16.5 61.7 62 9.4 48.9 16.67 0.656
18:34 1016 30 845 24.95 16.4 61.5 65 9.9 49.8 16.6 0.654
18:35 1016 30 845 24.95 16.4 61.4 61 8.9 48 16.54 0.651
18:36 1016 30 845 24.95 16.3 61.3 63 9.3 48.8 16.46 0.648
18:37 1016 30 845 24.95 16.2 61.2 60 8.6 47.5 16.5 0.65
18:38 1016 30 845 24.95 16.2 61.2 58 7.9 46.3 16.43 0.647
18:39 1016 30 845 24.95 16.2 61.2 65 9.6 49.3 16.46 0.648
18:40 1016 30 845 24.95 16.3 61.4 62 9 48.2 16.63 0.655
18:41 1016 30 845 24.95 16.5 61.6 57 8.1 46.7 16.73 0.659
18:42 1016 30 845 24.95 16.6 61.9 61 9 48.3 16.79 0.661
18:43 1016 30 845 24.95 16.7 62.1 59 8.8 47.8 16.91 0.666
18:44 1016 30 845 24.95 16.7 62 55 7.6 45.6 16.89 0.665
18:45 1016 30 845 24.95 16.6 61.8 61 9 48.3 16.83 0.663
18:46 1016 30 845 24.95 16.6 61.8 59 8.7 47.6 16.8 0.661
18:47 1016 30 845 24.95 16.7 62 56 7.9 46.3 16.92 0.666
18:48 1016 30 845 24.95 16.8 62.2 60 9 48.2 17.04 0.671
18:49 1016 30 845 24.95 16.9 62.4 62 9.7 49.5 17.25 0.679
18:50 1016 30 845 24.95 17 62.6 59 9 48.1 17.39 0.685
18:51 1016 30 845 24.95 17.1 62.8 58 8.8 47.9 17.42 0.686
18:52 1016 30 845 24.95 17.2 62.9 59 9.1 48.5 17.39 0.685
18:53 1016 30 845 24.95 17.2 63 58 8.9 48 17.43 0.686
18:54 1016 30 845 24.95 17.3 63.1 60 9.5 49.1 17.41 0.685
18:55 1016 30 845 24.95 17.2 63 55 8.3 46.9 17.39 0.685
18:56 1016 30 845 24.95 17.2 62.9 55 8.3 46.9 17.33 0.682
18:57 1016 30 845 24.95 17.1 62.8 56 8.3 46.9 17.33 0.682
18:58 1016 30 845 24.95 17 62.6 57 8.7 47.6 17.33 0.682
18:59 1016 30 845 24.95 17 62.5 56 8.3 46.9 17.34 0.683
19:00 1016 30 845 24.95 17 62.6 56 8.2 46.7 17.24 0.679
19:01 1016 30 845 24.95 17 62.6 56 8.3 47 17.15 0.675
19:02 1016 30 845 24.95 17 62.7 55 8.1 46.6 17.12 0.674
19:03 1016 30 845 24.95 16.9 62.4 58 8.6 47.4 16.98 0.669
19:04 1016 30 845 24.95 16.8 62.2 57 8.4 47 16.92 0.666
19:05 1016 30 845 24.95 16.7 62 58 8.5 47.4 16.91 0.666
19:06 1016 30 845 24.95 16.7 62 58 8.4 47.1 16.87 0.664
19:07 1016 30 845 24.95 16.5 61.8 59 8.5 47.4 16.74 0.659
19:08 1016 30 845 24.95 16.4 61.5 64 9.5 49.2 16.61 0.654
19:09 1016 30 845 24.95 16.4 61.5 58 8.2 46.7 16.61 0.654
19:10 1016 30 845 24.95 16.4 61.5 60 8.8 47.8 16.61 0.654
19:11 1016 30 845 24.95 16.4 61.6 61 9 48.3 16.63 0.655
19:12 1016 30 845 24.95 16.5 61.6 60 8.8 47.8 16.63 0.655
19:13 1016 30 845 24.95 16.4 61.4 61 8.8 47.9 16.55 0.652
19:14 1016 30 845 24.95 16.3 61.3 61 8.9 48 16.45 0.648
19:15 1016 30 845 24.95 16.1 61 64 9.3 48.8 16.34 0.643
19:16 1016 30 845 24.95 16 60.7 62 8.7 47.7 16.22 0.639
19:17 1016 30 845 24.95 15.9 60.6 61 8.5 47.3 16.09 0.633
19:18 1016 30 845 24.95 15.8 60.4 62 8.6 47.6 15.98 0.629
19:19 1016 30 845 24.95 15.8 60.4 65 9.2 48.5 16 0.63
19:20 1016 30 845 24.95 15.7 60.2 63 8.8 47.9 15.95 0.628
19:21 1016 30 845 24.95 15.6 60.1 66 9.3 48.8 15.88 0.625
19:22 1016 30 845 24.95 15.5 59.9 67 9.5 49.2 15.84 0.624
19:23 1016 30 845 24.95 15.4 59.7 67 9.4 48.9 15.74 0.62
19:24 1016 30 845 24.95 15.3 59.5 64 8.7 47.6 15.67 0.617
19:25 1016 30 845 24.95 15.2 59.4 66 9.1 48.3 15.62 0.615
19:26 1016 30 845 24.95 15.3 59.5 66 8.9 48.1 15.62 0.615
19:27 1016 30 845 24.95 15.2 59.4 65 8.8 47.8 15.6 0.614
19:28 1016 30 845 24.95 15.2 59.3 64 8.6 47.5 15.52 0.611
19:29 1016 30 845 24.95 15.2 59.3 66 8.9 48 15.49 0.61
19:30 1016 30 845 24.95 15.1 59.2 65 8.7 47.6 15.46 0.609
19:31 1016 30 845 24.95 15.1 59.2 65 8.6 47.4 15.42 0.607
19:32 1016 30 846 24.98 15.1 59.1 65 8.6 47.4 15.38 0.606
19:33 1016 30 846 24.98 15.1 59.1 65 8.6 47.5 15.41 0.607
19:34 1016 30 846 24.98 15 59.1 66 8.9 47.9 15.38 0.606
19:35 1016 30 846 24.98 15 59.1 65 8.7 47.6 15.36 0.605
19:36 1016 30 846 24.98 15.1 59.1 65 8.6 47.4 15.37 0.605
19:37 1016 30 846 24.98 15.2 59.3 63 8.3 47 15.48 0.609
19:38 1016 30 846 24.98 15.3 59.5 64 8.5 47.3 15.54 0.612
19:39 1016 30 846 24.98 15.4 59.7 64 8.8 47.8 15.69 0.618
19:40 1016 30 846 24.98 15.5 59.9 62 8.3 46.9 15.87 0.625
19:41 1016 30 846 24.98 15.6 60.1 65 9.3 48.7 15.95 0.628
19:42 1016 30 846 24.98 15.7 60.2 67 9.7 49.4 16.07 0.633
19:43 1016 30 846 24.98 15.7 60.3 64 9 48.1 16.14 0.635
19:44 1016 30 846 24.98 15.7 60.2 65 9.3 48.7 16.12 0.635
19:45 1016 30 846 24.98 15.6 60.1 66 9.3 48.8 16.13 0.635
19:46 1016 30 846 24.98 15.5 59.9 65 9 48.3 16.03 0.631
19:47 1017 30.03 846 24.98 15.4 59.7 66 9 48.2 15.86 0.624
19:48 1017 30.03 846 24.98 15.3 59.6 69 9.7 49.4 15.86 0.624
19:49 1016 30 846 24.98 15.3 59.5 72 10.3 50.5 15.86 0.624
19:50 1016 30 846 24.98 15.2 59.4 68 9.3 48.8 15.81 0.622
19:51 1016 30 846 24.98 15.2 59.4 70 9.8 49.7 15.74 0.62
19:52 1016 30 846 24.98 15.3 59.5 68 9.5 49.2 15.84 0.624
19:53 1016 30 846 24.98 15.3 59.6 67 9.3 48.8 15.86 0.624
19:54 1016 30 846 24.98 15.4 59.8 67 9.4 49 15.95 0.628
19:55 1016 30 846 24.98 15.4 59.7 67 9.4 48.9 15.94 0.628
19:56 1016 30 846 24.98 15.4 59.7 64 8.7 47.7 15.9 0.626
19:57 1016 30 846 24.98 15.4 59.7 68 9.6 49.4 15.89 0.626
19:58 1016 30 846 24.98 15.4 59.7 70 10 50 15.88 0.625
19:59 1016 30 846 24.98 15.4 59.7 69 9.9 49.8 15.94 0.628
20:00 1016 30 846 24.98 15.4 59.6 68 9.5 49 15.89 0.626
20:01 1016 30 846 24.98 15.3 59.5 71 10.1 50.1 15.79 0.622
20:02 1016 30 846 24.98 15.3 59.5 71 10.1 50.3 15.77 0.621
20:03 1016 30 846 24.98 15.3 59.5 71 10 50 15.8 0.622
20:04 1016 30 846 24.98 15.3 59.5 77 11.3 52.3 15.84 0.624
20:05 1016 30 846 24.98 15.1 59.3 78 11.3 52.3 15.74 0.62
20:06 1016 30 846 24.98 14.8 58.7 78 11.1 51.9 15.43 0.607
20:07 1016 30 846 24.98 14.6 58.2 81 11.3 52.4 15.18 0.598
20:08 1016 30 846 24.98 14.3 57.8 82 11.4 52.4 14.93 0.588
20:09 1016 30 846 24.98 14.1 57.4 83 11.3 52.4 14.73 0.58
20:10 1016 30 846 24.98 14 57.1 84 11.4 52.5 14.55 0.573
20:11 1016 30 846 24.98 13.8 56.8 85 11.3 52.3 14.35 0.565
20:12 1016 30 846 24.98 13.7 56.6 85 11.3 52.3 14.22 0.56
20:13 1016 30 846 24.98 13.5 56.4 86 11.2 52.2 14.12 0.556
20:14 1016 30 846 24.98 13.4 56.2 86 11.2 52.1 13.96 0.55
20:15 1016 30 846 24.98 13.4 56.1 86 11.1 51.9 13.89 0.547
20:16 1016 30 846 24.98 13.3 55.9 86 11 51.9 13.82 0.544
20:17 1016 30 846 24.98 13.3 55.9 86 11.1 51.9 13.8 0.543
20:18 1016 30 846 24.98 13.3 55.9 87 11.2 52.1 13.74 0.541
20:19 1016 30 846 24.98 13.2 55.8 88 11.2 52.2 13.75 0.541
20:20 1017 30.03 846 24.98 13.2 55.7 88 11.2 52.2 13.66 0.538
20:21 1017 30.03 846 24.98 13.1 55.6 88 11.3 52.3 13.68 0.539
20:22 1017 30.03 846 24.98 13.1 55.6 89 11.3 52.4 13.64 0.537
20:23 1017 30.03 846 24.98 13.1 55.6 89 11.4 52.4 13.63 0.537
20:24 1017 30.03 846 24.98 13.1 55.5 89 11.4 52.4 13.58 0.535
20:25 1017 30.03 846 24.98 13 55.4 90 11.4 52.5 13.53 0.533
20:26 1016 30 846 24.98 13 55.4 90 11.4 52.5 13.5 0.531
20:27 1016 30 846 24.98 13 55.3 90 11.3 52.4 13.5 0.531
20:28 1016 30 846 24.98 12.9 55.3 90 11.3 52.4 13.41 0.528
20:29 1016 30 846 24.98 12.9 55.2 90 11.3 52.3 13.39 0.527
20:30 1016 30 846 24.98 12.9 55.2 90 11.2 52.2 13.34 0.525
20:31 1016 30 846 24.98 12.8 55 89 11.1 52 13.3 0.524
20:32 1016 30 846 24.98 12.8 55 89 11.1 52 13.26 0.522
20:33 1016 30 846 24.98 12.7 54.9 89 11 51.8 13.24 0.521
20:34 1017 30.03 846 24.98 12.7 54.9 89 10.9 51.6 13.2 0.52
20:35 1016 30 846 24.98 12.7 54.9 88 10.8 51.4 13.12 0.517
20:36 1017 30.03 846 24.98 12.7 54.8 88 10.7 51.3 13.12 0.517
20:37 1017 30.03 846 24.98 12.7 54.8 88 10.7 51.3 13.08 0.515
20:38 1017 30.03 846 24.98 12.7 54.8 88 10.7 51.2 13.07 0.515
20:39 1017 30.03 846 24.98 12.6 54.7 88 10.7 51.2 13.02 0.513
20:40 1017 30.03 846 24.98 12.6 54.6 88 10.7 51.3 12.98 0.511
20:41 1017 30.03 846 24.98 12.5 54.5 88 10.6 51.1 12.95 0.51
20:42 1017 30.03 846 24.98 12.5 54.5 88 10.6 51.2 12.88 0.507
20:43 1017 30.03 846 24.98 12.4 54.4 88 10.5 51 12.87 0.507
20:44 1017 30.03 846 24.98 12.4 54.4 88 10.5 50.9 12.85 0.506
20:45 1017 30.03 846 24.98 12.4 54.3 88 10.5 50.8 12.84 0.506
20:46 1017 30.03 846 24.98 12.4 54.3 88 10.4 50.7 12.82 0.505
20:47 1017 30.03 846 24.98 12.4 54.3 87 10.3 50.6 12.83 0.505
20:48 1017 30.03 846 24.98 12.4 54.3 87 10.3 50.5 12.77 0.503
20:49 1017 30.03 846 24.98 12.4 54.2 87 10.2 50.4 12.77 0.503
20:50 1017 30.03 846 24.98 12.3 54.2 87 10.2 50.4 12.75 0.502
20:51 1017 30.03 846 24.98 12.3 54.1 87 10.1 50.3 12.67 0.499
20:52 1017 30.03 846 24.98 12.2 54 87 10.1 50.1 12.65 0.498
20:53 1017 30.03 846 24.98 12.2 54 86 10 50 12.59 0.496
20:54 1017 30.03 846 24.98 12.2 53.9 87 10 50 12.52 0.493
20:55 1017 30.03 846 24.98 12.1 53.8 87 10.1 50.1 12.49 0.492
20:56 1017 30.03 846 24.98 12 53.7 88 10 50.1 12.46 0.491
20:57 1017 30.03 846 24.98 12 53.6 87 10 49.9 12.42 0.489
20:58 1017 30.03 846 24.98 11.9 53.4 88 9.9 49.8 12.37 0.487
20:59 1017 30.03 846 24.98 11.9 53.4 87 9.9 49.8 12.34 0.486
21:00 1017 30.03 846 24.98 11.9 53.4 88 9.9 49.8 12.29 0.484
21:01 1017 30.03 846 24.98 11.8 53.3 87 9.8 49.6 12.28 0.483
21:02 1017 30.03 846 24.98 11.8 53.3 88 9.9 49.8 12.24 0.482
21:03 1017 30.03 846 24.98 11.8 53.2 88 9.8 49.7 12.23 0.481
21:04 1017 30.03 846 24.98 11.8 53.2 88 9.9 49.8 12.21 0.481
21:05 1017 30.03 846 24.98 11.8 53.2 88 9.9 49.8 12.2 0.48
21:06 1017 30.03 846 24.98 11.7 53.1 88 9.9 49.8 12.15 0.478
21:07 1017 30.03 846 24.98 11.7 53.1 88 9.9 49.8 12.16 0.479
21:08 1017 30.03 846 24.98 11.7 53.1 89 9.9 49.9 12.12 0.477
21:09 1017 30.03 846 24.98 11.7 53 89 9.9 49.8 12.16 0.479
21:10 1017 30.03 846 24.98 11.7 53.1 89 9.9 49.9 12.13 0.478
21:11 1017 30.03 846 24.98 11.7 53 89 9.9 49.8 12.09 0.476
21:12 1017 30.03 846 24.98 11.7 53 89 9.9 49.8 12.11 0.477
21:13 1017 30.03 846 24.98 11.7 53 89 10 49.9 12.1 0.476
21:14 1017 30.03 846 24.98 11.7 53 89 9.9 49.9 12.13 0.478
21:15 1017 30.03 846 24.98 11.7 53 89 10 49.9 12.05 0.474
21:16 1017 30.03 846 24.98 11.7 53 89 9.9 49.8 12.06 0.475
21:17 1017 30.03 846 24.98 11.7 53 89 9.9 49.8 12.06 0.475
21:18 1017 30.03 846 24.98 11.7 53 88 9.8 49.7 12.05 0.474
21:19 1017 30.03 846 24.98 11.7 53 88 9.8 49.6 12.08 0.476
21:20 1017 30.03 846 24.98 11.7 53.1 88 9.8 49.7 12.1 0.476
21:21 1017 30.03 846 24.98 11.7 53.1 88 9.9 49.7 12.1 0.476
21:22 1017 30.03 846 24.98 11.7 53.1 88 9.9 49.7 12.12 0.477
21:23 1017 30.03 846 24.98 11.7 53 88 9.8 49.6 12.07 0.475
21:24 1017 30.03 846 24.98 11.7 53 88 9.7 49.5 12.06 0.475
21:25 1017 30.03 846 24.98 11.7 53 88 9.8 49.7 12.06 0.475
21:26 1017 30.03 846 24.98 11.7 53 88 9.8 49.7 12.07 0.475
21:27 1017 30.03 846 24.98 11.6 53 88 9.8 49.6 12.04 0.474
21:28 1017 30.03 846 24.98 11.7 53 89 9.9 49.8 12.06 0.475
21:29 1017 30.03 846 24.98 11.6 52.9 90 10 50 12.05 0.474
21:30 1017 30.03 846 24.98 11.6 52.8 90 9.9 49.9 11.99 0.472
21:31 1017 30.03 846 24.98 11.5 52.8 90 10 49.9 11.97 0.471
21:32 1017 30.03 846 24.98 11.5 52.7 90 10 49.9 11.97 0.471
21:33 1017 30.03 846 24.98 11.5 52.7 90 9.9 49.9 11.97 0.471
21:34 1017 30.03 846 24.98 11.5 52.8 90 10 50 11.97 0.471
21:35 1017 30.03 846 24.98 11.6 52.8 90 10 50 12.03 0.474
21:36 1017 30.03 846 24.98 11.6 52.9 90 10 50.1 12.02 0.473
21:37 1017 30.03 846 24.98 11.6 52.9 90 10 50.1 12.02 0.473
21:38 1017 30.03 846 24.98 11.6 52.9 90 10.1 50.1 12.06 0.475
21:39 1017 30.03 846 24.98 11.6 52.9 90 10.1 50.2 12.03 0.474
21:40 1017 30.03 846 24.98 11.6 52.9 91 10.2 50.3 12.08 0.476
21:41 1017 30.03 846 24.98 11.6 53 91 10.2 50.4 12.08 0.476
21:42 1017 30.03 846 24.98 11.6 52.9 91 10.2 50.4 12.05 0.474
21:43 1017 30.03 847 25.01 11.6 52.9 91 10.2 50.4 12.08 0.476
21:44 1017 30.03 847 25.01 11.6 53 91 10.2 50.4 12.08 0.476
21:45 1017 30.03 847 25.01 11.7 53 91 10.3 50.5 12.11 0.477
21:46 1017 30.03 847 25.01 11.7 53 91 10.3 50.5 12.12 0.477
21:47 1017 30.03 847 25.01 11.7 53.1 91 10.3 50.5 12.12 0.477
21:48 1017 30.03 847 25.01 11.7 53.1 91 10.3 50.5 12.11 0.477
21:49 1017 30.03 847 25.01 11.7 53.1 91 10.3 50.6 12.15 0.478
21:50 1017 30.03 847 25.01 11.7 53.1 91 10.3 50.6 12.17 0.479
21:51 1017 30.03 847 25.01 11.8 53.2 91 10.4 50.8 12.2 0.48
21:52 1017 30.03 847 25.01 11.8 53.3 92 10.5 50.9 12.21 0.481
21:53 1017 30.03 847 25.01 11.9 53.3 92 10.5 51 12.3 0.484
21:54 1017 30.03 847 25.01 11.9 53.5 92 10.6 51.1 12.36 0.487
21:55 1017 30.03 847 25.01 11.9 53.5 91 10.6 51.1 12.36 0.487
21:56 1017 30.03 847 25.01 12 53.6 91 10.5 51 12.42 0.489
21:57 1017 30.03 847 25.01 12.1 53.7 90 10.6 51 12.47 0.491
21:58 1017 30.03 847 25.01 12.2 53.9 90 10.6 51.1 12.53 0.493
21:59 1017 30.03 847 25.01 12.2 53.9 89 10.5 50.8 12.55 0.494
22:00 1017 30.03 847 25.01 12.2 54 89 10.5 51 12.56 0.494
22:01 1017 30.03 847 25.01 12.2 54 89 10.5 50.9 12.59 0.496
22:02 1017 30.03 847 25.01 12.2 54 90 10.6 51.1 12.62 0.497
22:03 1017 30.03 847 25.01 12.2 54 90 10.6 51.1 12.62 0.497
22:04 1017 30.03 847 25.01 12.2 54 89 10.5 51 12.61 0.496
22:05 1017 30.03 847 25.01 12.2 54 89 10.5 50.8 12.59 0.496
22:06 1017 30.03 847 25.01 12.2 53.9 87 10.2 50.3 12.55 0.494
22:07 1018 30.06 847 25.01 12.2 53.9 87 10.1 50.1 12.51 0.493
22:08 1018 30.06 847 25.01 12.2 53.9 86 9.9 49.8 12.49 0.492
22:09 1018 30.06 847 25.01 12.2 54 85 9.8 49.6 12.51 0.493
22:10 1018 30.06 847 25.01 12.2 54 85 9.8 49.7 12.5 0.492
22:11 1018 30.06 847 25.01 12.2 54 85 9.8 49.6 12.53 0.493
22:12 1018 30.06 847 25.01 12.2 54 84 9.7 49.5 12.5 0.492
22:13 1018 30.06 847 25.01 12.2 54 84 9.5 49.2 12.51 0.493
22:14 1018 30.06 847 25.01 12.3 54.1 84 9.7 49.4 12.5 0.492
22:15 1018 30.06 847 25.01 12.2 54 85 9.7 49.5 12.53 0.493
22:16 1018 30.06 847 25.01 12.2 54 84 9.7 49.5 12.53 0.493
22:17 1018 30.06 847 25.01 12.2 53.9 85 9.7 49.5 12.48 0.491
22:18 1018 30.06 847 25.01 12.2 53.9 85 9.7 49.5 12.47 0.491
22:19 1018 30.06 847 25.01 12.1 53.8 85 9.7 49.5 12.45 0.49
22:20 1018 30.06 847 25.01 12.1 53.7 85 9.7 49.4 12.42 0.489
22:21 1017 30.03 847 25.01 12.1 53.7 86 9.7 49.5 12.42 0.489
22:22 1017 30.03 847 25.01 12.1 53.7 86 9.8 49.7 12.4 0.488
22:23 1017 30.03 847 25.01 12 53.6 86 9.8 49.6 12.38 0.487
22:24 1017 30.03 847 25.01 12 53.6 86 9.8 49.6 12.37 0.487
22:25 1017 30.03 847 25.01 12 53.6 86 9.8 49.6 12.35 0.486
22:26 1017 30.03 847 25.01 12 53.6 86 9.8 49.6 12.35 0.486
22:27 1017 30.03 847 25.01 12 53.5 86 9.7 49.5 12.32 0.485
22:28 1017 30.03 847 25.01 12 53.5 86 9.7 49.4 12.31 0.485
22:29 1017 30.03 847 25.01 12 53.5 86 9.7 49.5 12.31 0.485
22:30 1018 30.06 847 25.01 12 53.5 86 9.7 49.5 12.31 0.485
22:31 1018 30.06 847 25.01 12 53.5 86 9.7 49.5 12.3 0.484
22:32 1018 30.06 847 25.01 11.9 53.5 86 9.7 49.5 12.3 0.484
22:33 1018 30.06 847 25.01 12 53.5 86 9.7 49.5 12.31 0.485
22:34 1018 30.06 847 25.01 11.9 53.5 86 9.7 49.5 12.29 0.484
22:35 1018 30.06 847 25.01 11.9 53.5 86 9.7 49.5 12.3 0.484
22:36 1018 30.06 847 25.01 11.9 53.4 86 9.7 49.5 12.26 0.483
22:37 1018 30.06 847 25.01 11.9 53.4 86 9.7 49.5 12.29 0.484
22:38 1018 30.06 847 25.01 11.9 53.4 86 9.7 49.5 12.3 0.484
22:39 1018 30.06 847 25.01 11.9 53.4 86 9.7 49.5 12.26 0.483
22:40 1018 30.06 847 25.01 11.9 53.4 86 9.7 49.5 12.25 0.482
22:41 1018 30.06 847 25.01 11.9 53.4 86 9.7 49.5 12.25 0.482
22:42 1018 30.06 847 25.01 11.8 53.3 87 9.8 49.6 12.24 0.482
22:43 1018 30.06 847 25.01 11.8 53.3 87 9.7 49.5 12.25 0.482
22:44 1018 30.06 847 25.01 11.9 53.3 87 9.7 49.4 12.16 0.479
22:45 1018 30.06 847 25.01 11.8 53.3 88 9.9 49.8 12.22 0.481
22:46 1018 30.06 847 25.01 11.9 53.4 89 10.1 50.2 12.24 0.482
22:47 1018 30.06 847 25.01 11.9 53.4 89 10.1 50.1 12.28 0.483
22:48 1018 30.06 847 25.01 11.9 53.3 89 10.1 50.2 12.28 0.483
22:49 1018 30.06 847 25.01 11.9 53.4 88 10 50.1 12.26 0.483
22:50 1018 30.06 847 25.01 11.8 53.3 88 9.9 49.9 12.24 0.482
22:51 1018 30.06 847 25.01 11.9 53.3 88 9.9 49.8 12.25 0.482
22:52 1018 30.06 847 25.01 11.9 53.3 87 9.8 49.6 12.22 0.481
22:53 1018 30.06 847 25.01 11.9 53.4 87 9.7 49.5 12.21 0.481
22:54 1018 30.06 847 25.01 11.9 53.5 87 9.8 49.6 12.29 0.484
22:55 1018 30.06 847 25.01 11.9 53.5 88 10 49.9 12.3 0.484
22:56 1018 30.06 847 25.01 11.9 53.4 89 10.1 50.2 12.32 0.485
22:57 1018 30.06 847 25.01 11.8 53.3 89 10.2 50.3 12.28 0.483
22:58 1018 30.06 847 25.01 11.8 53.2 90 10.2 50.3 12.21 0.481
22:59 1018 30.06 847 25.01 11.7 53.1 90 10.2 50.3 12.2 0.48
23:00 1018 30.06 847 25.01 11.7 53 90 10.2 50.3 12.14 0.478
23:01 1018 30.06 847 25.01 11.7 53.1 91 10.3 50.5 12.1 0.476
23:02 1018 30.06 847 25.01 11.6 52.8 91 10.2 50.4 12.02 0.473
23:03 1018 30.06 847 25.01 11.5 52.8 92 10.2 50.4 12.03 0.474
23:04 1018 30.06 847 25.01 11.5 52.6 92 10.2 50.3 11.94 0.47
23:05 1018 30.06 847 25.01 11.5 52.6 92 10.1 50.3 11.93 0.47
23:06 1018 30.06 847 25.01 11.4 52.6 92 10.2 50.3 11.89 0.468
23:07 1018 30.06 847 25.01 11.4 52.5 92 10.2 50.3 11.89 0.468
23:08 1018 30.06 847 25.01 11.4 52.6 92 10.2 50.4 11.91 0.469
23:09 1018 30.06 847 25.01 11.4 52.5 92 10.2 50.4 11.88 0.468
23:10 1018 30.06 847 25.01 11.4 52.5 92 10.2 50.4 11.87 0.467
23:11 1018 30.06 847 25.01 11.5 52.6 93 10.3 50.5 11.88 0.468
23:12 1018 30.06 847 25.01 11.4 52.6 93 10.3 50.6 11.89 0.468
23:13 1018 30.06 847 25.01 11.5 52.6 93 10.3 50.6 11.91 0.469
23:14 1018 30.06 847 25.01 11.4 52.5 93 10.3 50.5 11.87 0.467
23:15 1018 30.06 847 25.01 11.4 52.5 93 10.3 50.5 11.86 0.467
23:16 1018 30.06 847 25.01 11.4 52.5 93 10.3 50.5 11.87 0.467
23:17 1018 30.06 847 25.01 11.4 52.5 93 10.3 50.5 11.87 0.467
23:18 1018 30.06 847 25.01 11.4 52.5 93 10.3 50.5 11.82 0.465
23:19 1018 30.06 847 25.01 11.4 52.5 93 10.3 50.5 11.82 0.465
23:20 1018 30.06 847 25.01 11.4 52.5 93 10.2 50.4 11.84 0.466
23:21 1018 30.06 847 25.01 11.4 52.6 93 10.3 50.5 11.84 0.466
23:22 1018 30.06 847 25.01 11.4 52.6 92 10.3 50.5 11.9 0.469
23:23 1018 30.06 847 25.01 11.5 52.7 92 10.3 50.5 11.88 0.468
23:24 1018 30.06 847 25.01 11.5 52.7 92 10.3 50.5 11.94 0.47
23:25 1018 30.06 847 25.01 11.5 52.7 92 10.3 50.5 11.95 0.47
23:26 1018 30.06 847 25.01 11.5 52.7 92 10.3 50.5 11.94 0.47
23:27 1018 30.06 847 25.01 11.5 52.7 92 10.3 50.5 11.92 0.469
23:28 1018 30.06 847 25.01 11.5 52.8 92 10.3 50.5 11.95 0.47
23:29 1018 30.06 847 25.01 11.6 52.9 92 10.3 50.5 11.94 0.47
23:30 1018 30.06 847 25.01 11.6 52.9 92 10.3 50.5 11.96 0.471
23:31 1018 30.06 847 25.01 11.6 52.9 92 10.3 50.5 11.99 0.472
23:32 1018 30.06 847 25.01 11.6 52.9 91 10.3 50.5 11.98 0.472
23:33 1018 30.06 847 25.01 11.6 52.9 92 10.3 50.6 11.98 0.472
23:34 1018 30.06 847 25.01 11.6 52.9 92 10.3 50.6 11.93 0.47
23:35 1018 30.06 847 25.01 11.5 52.8 92 10.3 50.5 11.96 0.471
23:36 1018 30.06 847 25.01 11.5 52.8 92 10.3 50.6 11.94 0.47
23:37 1018 30.06 847 25.01 11.5 52.8 92 10.3 50.6 11.95 0.47
23:38 1018 30.06 847 25.01 11.6 52.8 93 10.4 50.7 12.02 0.473
23:39 1018 30.06 847 25.01 11.6 52.9 93 10.5 50.8 12.05 0.474
23:40 1018 30.06 847 25.01 11.7 53 92 10.5 50.9 12.1 0.476
23:41 1018 30.06 847 25.01 11.7 53.1 92 10.4 50.8 12.14 0.478
23:42 1018 30.06 847 25.01 11.8 53.2 91 10.4 50.7 12.17 0.479
23:43 1018 30.06 847 25.01 11.8 53.2 91 10.4 50.7 12.2 0.48
23:44 1018 30.06 847 25.01 11.8 53.3 91 10.4 50.7 12.21 0.481
23:45 1018 30.06 847 25.01 11.9 53.3 91 10.4 50.7 12.2 0.48
23:46 1018 30.06 847 25.01 11.9 53.3 90 10.3 50.6 12.21 0.481
23:47 1018 30.06 847 25.01 11.9 53.4 90 10.4 50.7 12.2 0.48
23:48 1018 30.06 847 25.01 11.8 53.3 91 10.4 50.6 12.19 0.48
23:49 1018 30.06 847 25.01 11.9 53.3 91 10.4 50.7 12.19 0.48
23:50 1018 30.06 847 25.01 11.8 53.3 91 10.4 50.7 12.21 0.481
23:51 1018 30.06 847 25.01 11.9 53.3 91 10.4 50.7 12.2 0.48
23:52 1018 30.06 847 25.01 11.9 53.4 90 10.3 50.6 12.2 0.48
23:53 1018 30.06 847 25.01 11.9 53.5 90 10.4 50.7 12.24 0.482
23:54 1018 30.06 847 25.01 12 53.5 90 10.4 50.7 12.27 0.483
23:55 1018 30.06 847 25.01 12 53.5 90 10.3 50.6 12.29 0.484
23:56 1018 30.06 847 25.01 12 53.5 89 10.3 50.5 12.29 0.484
23:57 1018 30.06 847 25.01 12 53.6 89 10.3 50.5 12.3 0.484
23:58 1018 30.06 847 25.01 12 53.7 89 10.2 50.4 12.3 0.484
23:59 1018 30.06 847 25.01 12.1 53.8 88 10.3 50.5 12.35 0.486
24:00 1018 30.06 847 25.01 12.1 53.8 89 10.3 50.6 12.36 0.487